<?xml version="1.0" encoding="UTF-8" standalone="no" ?>
<gpx xmlns="http://www.topografix.com/GPX/1/1" xmlns:xsi="http://www.w3.org/2001/XMLSchema-instance" xsi:schemaLocation="http://www.topografix.com/GPX/1/1 http://www.topografix.com/GPX/1/1/gpx.xsd" version="1.1" creator="VisuGPX - https://www.visugpx.com">
  <metadata>
    <name>Eveux Yzeron 22062012</name>
    <desc><![CDATA[Sortie VTT proposée par Véro]]></desc>
  </metadata>
  <trk>
    <name><![CDATA[9.2bis eveux 2012_01]]></name>
    <trkseg>
      <trkpt lat="45.82086" lon="4.62379">
        <ele>372</ele>
        <time>2012-06-22T11:49:45Z</time>
      </trkpt>
      <trkpt lat="45.82081" lon="4.62378">
        <ele>376</ele>
        <time>2012-06-22T11:49:50Z</time>
      </trkpt>
      <trkpt lat="45.82077" lon="4.62374">
        <ele>376</ele>
        <time>2012-06-22T11:49:54Z</time>
      </trkpt>
      <trkpt lat="45.8203" lon="4.62346">
        <ele>378</ele>
        <time>2012-06-22T11:50:21Z</time>
      </trkpt>
      <trkpt lat="45.82013" lon="4.62336">
        <ele>378</ele>
        <time>2012-06-22T11:50:29Z</time>
      </trkpt>
      <trkpt lat="45.81963" lon="4.62301">
        <ele>378</ele>
        <time>2012-06-22T11:50:53Z</time>
      </trkpt>
      <trkpt lat="45.81935" lon="4.6229">
        <ele>379</ele>
        <time>2012-06-22T11:51:03Z</time>
      </trkpt>
      <trkpt lat="45.81914" lon="4.62282">
        <ele>385</ele>
        <time>2012-06-22T11:51:11Z</time>
      </trkpt>
      <trkpt lat="45.81871" lon="4.6226">
        <ele>387</ele>
        <time>2012-06-22T11:51:29Z</time>
      </trkpt>
      <trkpt lat="45.81832" lon="4.62245">
        <ele>391</ele>
        <time>2012-06-22T11:51:44Z</time>
      </trkpt>
      <trkpt lat="45.81803" lon="4.62231">
        <ele>390</ele>
        <time>2012-06-22T11:51:55Z</time>
      </trkpt>
      <trkpt lat="45.81783" lon="4.62223">
        <ele>391</ele>
        <time>2012-06-22T11:52:03Z</time>
      </trkpt>
      <trkpt lat="45.81778" lon="4.6222">
        <ele>391</ele>
        <time>2012-06-22T11:52:05Z</time>
      </trkpt>
      <trkpt lat="45.81759" lon="4.62202">
        <ele>391</ele>
        <time>2012-06-22T11:52:17Z</time>
      </trkpt>
      <trkpt lat="45.81756" lon="4.62197">
        <ele>392</ele>
        <time>2012-06-22T11:52:19Z</time>
      </trkpt>
      <trkpt lat="45.81746" lon="4.62177">
        <ele>395</ele>
        <time>2012-06-22T11:52:30Z</time>
      </trkpt>
      <trkpt lat="45.8173" lon="4.62179">
        <ele>396</ele>
        <time>2012-06-22T11:52:40Z</time>
      </trkpt>
      <trkpt lat="45.81713" lon="4.62184">
        <ele>396</ele>
        <time>2012-06-22T11:52:51Z</time>
      </trkpt>
      <trkpt lat="45.81702" lon="4.62183">
        <ele>397</ele>
        <time>2012-06-22T11:52:58Z</time>
      </trkpt>
      <trkpt lat="45.81683" lon="4.62184">
        <ele>397</ele>
        <time>2012-06-22T11:53:08Z</time>
      </trkpt>
      <trkpt lat="45.81662" lon="4.62186">
        <ele>399</ele>
        <time>2012-06-22T11:53:19Z</time>
      </trkpt>
      <trkpt lat="45.81642" lon="4.62188">
        <ele>399</ele>
        <time>2012-06-22T11:53:29Z</time>
      </trkpt>
      <trkpt lat="45.8162" lon="4.62187">
        <ele>399</ele>
        <time>2012-06-22T11:53:39Z</time>
      </trkpt>
      <trkpt lat="45.81591" lon="4.62187">
        <ele>398</ele>
        <time>2012-06-22T11:53:50Z</time>
      </trkpt>
      <trkpt lat="45.81562" lon="4.62185">
        <ele>397</ele>
        <time>2012-06-22T11:53:59Z</time>
      </trkpt>
      <trkpt lat="45.81525" lon="4.6218">
        <ele>396</ele>
        <time>2012-06-22T11:54:10Z</time>
      </trkpt>
      <trkpt lat="45.81506" lon="4.62182">
        <ele>396</ele>
        <time>2012-06-22T11:54:18Z</time>
      </trkpt>
      <trkpt lat="45.81507" lon="4.62203">
        <ele>396</ele>
        <time>2012-06-22T11:54:23Z</time>
      </trkpt>
      <trkpt lat="45.81519" lon="4.62236">
        <ele>396</ele>
        <time>2012-06-22T11:54:32Z</time>
      </trkpt>
      <trkpt lat="45.81532" lon="4.62282">
        <ele>398</ele>
        <time>2012-06-22T11:54:43Z</time>
      </trkpt>
      <trkpt lat="45.81543" lon="4.62327">
        <ele>398</ele>
        <time>2012-06-22T11:54:54Z</time>
      </trkpt>
      <trkpt lat="45.81559" lon="4.62384">
        <ele>399</ele>
        <time>2012-06-22T11:55:06Z</time>
      </trkpt>
      <trkpt lat="45.81568" lon="4.62442">
        <ele>399</ele>
        <time>2012-06-22T11:55:16Z</time>
      </trkpt>
      <trkpt lat="45.81575" lon="4.62502">
        <ele>400</ele>
        <time>2012-06-22T11:55:26Z</time>
      </trkpt>
      <trkpt lat="45.81581" lon="4.62538">
        <ele>397</ele>
        <time>2012-06-22T11:55:33Z</time>
      </trkpt>
      <trkpt lat="45.81584" lon="4.62569">
        <ele>401</ele>
        <time>2012-06-22T11:55:39Z</time>
      </trkpt>
      <trkpt lat="45.81595" lon="4.62633">
        <ele>401</ele>
        <time>2012-06-22T11:55:48Z</time>
      </trkpt>
      <trkpt lat="45.81609" lon="4.62688">
        <ele>401</ele>
        <time>2012-06-22T11:55:55Z</time>
      </trkpt>
      <trkpt lat="45.81617" lon="4.62718">
        <ele>401</ele>
        <time>2012-06-22T11:55:59Z</time>
      </trkpt>
      <trkpt lat="45.81614" lon="4.62752">
        <ele>401</ele>
        <time>2012-06-22T11:56:04Z</time>
      </trkpt>
      <trkpt lat="45.81608" lon="4.62794">
        <ele>403</ele>
        <time>2012-06-22T11:56:10Z</time>
      </trkpt>
      <trkpt lat="45.81614" lon="4.62844">
        <ele>407</ele>
        <time>2012-06-22T11:56:19Z</time>
      </trkpt>
      <trkpt lat="45.81616" lon="4.62858">
        <ele>407</ele>
        <time>2012-06-22T11:56:22Z</time>
      </trkpt>
      <trkpt lat="45.81616" lon="4.62901">
        <ele>409</ele>
        <time>2012-06-22T11:56:32Z</time>
      </trkpt>
      <trkpt lat="45.81617" lon="4.6295">
        <ele>412</ele>
        <time>2012-06-22T11:56:43Z</time>
      </trkpt>
      <trkpt lat="45.81619" lon="4.62996">
        <ele>413</ele>
        <time>2012-06-22T11:56:54Z</time>
      </trkpt>
      <trkpt lat="45.81624" lon="4.63029">
        <ele>416</ele>
        <time>2012-06-22T11:57:02Z</time>
      </trkpt>
      <trkpt lat="45.81628" lon="4.63069">
        <ele>416</ele>
        <time>2012-06-22T11:57:11Z</time>
      </trkpt>
      <trkpt lat="45.81638" lon="4.63123">
        <ele>418</ele>
        <time>2012-06-22T11:57:23Z</time>
      </trkpt>
      <trkpt lat="45.81649" lon="4.63166">
        <ele>418</ele>
        <time>2012-06-22T11:57:33Z</time>
      </trkpt>
      <trkpt lat="45.81653" lon="4.63185">
        <ele>419</ele>
        <time>2012-06-22T11:57:37Z</time>
      </trkpt>
      <trkpt lat="45.81641" lon="4.63204">
        <ele>419</ele>
        <time>2012-06-22T11:57:42Z</time>
      </trkpt>
      <trkpt lat="45.81616" lon="4.6323">
        <ele>421</ele>
        <time>2012-06-22T11:57:51Z</time>
      </trkpt>
      <trkpt lat="45.81567" lon="4.63279">
        <ele>433</ele>
        <time>2012-06-22T11:58:12Z</time>
      </trkpt>
      <trkpt lat="45.81563" lon="4.63283">
        <ele>434</ele>
        <time>2012-06-22T11:58:14Z</time>
      </trkpt>
      <trkpt lat="45.81544" lon="4.63302">
        <ele>437</ele>
        <time>2012-06-22T11:58:23Z</time>
      </trkpt>
      <trkpt lat="45.81531" lon="4.63321">
        <ele>439</ele>
        <time>2012-06-22T11:58:32Z</time>
      </trkpt>
      <trkpt lat="45.81502" lon="4.63332">
        <ele>447</ele>
        <time>2012-06-22T11:58:48Z</time>
      </trkpt>
      <trkpt lat="45.81484" lon="4.6333">
        <ele>448</ele>
        <time>2012-06-22T11:59:00Z</time>
      </trkpt>
      <trkpt lat="45.81468" lon="4.63312">
        <ele>448</ele>
        <time>2012-06-22T11:59:12Z</time>
      </trkpt>
      <trkpt lat="45.81446" lon="4.63302">
        <ele>449</ele>
        <time>2012-06-22T11:59:23Z</time>
      </trkpt>
      <trkpt lat="45.8142" lon="4.63279">
        <ele>448</ele>
        <time>2012-06-22T11:59:35Z</time>
      </trkpt>
      <trkpt lat="45.81389" lon="4.63257">
        <ele>453</ele>
        <time>2012-06-22T11:59:48Z</time>
      </trkpt>
      <trkpt lat="45.81369" lon="4.63257">
        <ele>454</ele>
        <time>2012-06-22T11:59:55Z</time>
      </trkpt>
      <trkpt lat="45.81359" lon="4.63267">
        <ele>455</ele>
        <time>2012-06-22T12:00:01Z</time>
      </trkpt>
      <trkpt lat="45.81358" lon="4.63269">
        <ele>455</ele>
        <time>2012-06-22T12:00:02Z</time>
      </trkpt>
      <trkpt lat="45.8135" lon="4.63285">
        <ele>456</ele>
        <time>2012-06-22T12:00:09Z</time>
      </trkpt>
      <trkpt lat="45.81343" lon="4.63304">
        <ele>458</ele>
        <time>2012-06-22T12:00:17Z</time>
      </trkpt>
      <trkpt lat="45.81334" lon="4.63305">
        <ele>458</ele>
        <time>2012-06-22T12:00:24Z</time>
      </trkpt>
      <trkpt lat="45.81332" lon="4.63305">
        <ele>463</ele>
        <time>2012-06-22T12:00:31Z</time>
      </trkpt>
      <trkpt lat="45.81334" lon="4.63307">
        <ele>458</ele>
        <time>2012-06-22T12:00:40Z</time>
      </trkpt>
      <trkpt lat="45.81334" lon="4.63311">
        <ele>459</ele>
        <time>2012-06-22T12:01:03Z</time>
      </trkpt>
      <trkpt lat="45.81341" lon="4.6332">
        <ele>460</ele>
        <time>2012-06-22T12:01:13Z</time>
      </trkpt>
      <trkpt lat="45.81343" lon="4.63321">
        <ele>459</ele>
        <time>2012-06-22T12:01:23Z</time>
      </trkpt>
      <trkpt lat="45.81345" lon="4.63319">
        <ele>459</ele>
        <time>2012-06-22T12:01:25Z</time>
      </trkpt>
      <trkpt lat="45.81342" lon="4.63308">
        <ele>458</ele>
        <time>2012-06-22T12:01:29Z</time>
      </trkpt>
      <trkpt lat="45.81336" lon="4.63294">
        <ele>457</ele>
        <time>2012-06-22T12:01:37Z</time>
      </trkpt>
      <trkpt lat="45.81333" lon="4.63286">
        <ele>456</ele>
        <time>2012-06-22T12:01:45Z</time>
      </trkpt>
      <trkpt lat="45.81329" lon="4.63283">
        <ele>462</ele>
        <time>2012-06-22T12:01:53Z</time>
      </trkpt>
      <trkpt lat="45.81328" lon="4.63285">
        <ele>462</ele>
        <time>2012-06-22T12:02:00Z</time>
      </trkpt>
      <trkpt lat="45.81328" lon="4.63286">
        <ele>462</ele>
        <time>2012-06-22T12:02:07Z</time>
      </trkpt>
      <trkpt lat="45.81318" lon="4.63305">
        <ele>464</ele>
        <time>2012-06-22T12:02:18Z</time>
      </trkpt>
      <trkpt lat="45.81314" lon="4.63311">
        <ele>464</ele>
        <time>2012-06-22T12:02:22Z</time>
      </trkpt>
      <trkpt lat="45.81303" lon="4.63326">
        <ele>465</ele>
        <time>2012-06-22T12:02:32Z</time>
      </trkpt>
      <trkpt lat="45.81295" lon="4.63345">
        <ele>470</ele>
        <time>2012-06-22T12:02:41Z</time>
      </trkpt>
      <trkpt lat="45.81286" lon="4.63372">
        <ele>471</ele>
        <time>2012-06-22T12:02:50Z</time>
      </trkpt>
      <trkpt lat="45.81271" lon="4.6341">
        <ele>473</ele>
        <time>2012-06-22T12:03:02Z</time>
      </trkpt>
      <trkpt lat="45.81249" lon="4.63455">
        <ele>475</ele>
        <time>2012-06-22T12:03:16Z</time>
      </trkpt>
      <trkpt lat="45.81232" lon="4.6346">
        <ele>474</ele>
        <time>2012-06-22T12:03:21Z</time>
      </trkpt>
      <trkpt lat="45.81209" lon="4.6344">
        <ele>475</ele>
        <time>2012-06-22T12:03:28Z</time>
      </trkpt>
      <trkpt lat="45.81191" lon="4.63423">
        <ele>477</ele>
        <time>2012-06-22T12:03:35Z</time>
      </trkpt>
      <trkpt lat="45.81171" lon="4.63411">
        <ele>481</ele>
        <time>2012-06-22T12:03:41Z</time>
      </trkpt>
      <trkpt lat="45.81146" lon="4.6337">
        <ele>487</ele>
        <time>2012-06-22T12:03:52Z</time>
      </trkpt>
      <trkpt lat="45.81128" lon="4.63345">
        <ele>489</ele>
        <time>2012-06-22T12:04:03Z</time>
      </trkpt>
      <trkpt lat="45.8112" lon="4.63339">
        <ele>490</ele>
        <time>2012-06-22T12:04:08Z</time>
      </trkpt>
      <trkpt lat="45.8105" lon="4.63325">
        <ele>497</ele>
        <time>2012-06-22T12:04:47Z</time>
      </trkpt>
      <trkpt lat="45.81032" lon="4.63318">
        <ele>497</ele>
        <time>2012-06-22T12:05:00Z</time>
      </trkpt>
      <trkpt lat="45.81013" lon="4.63308">
        <ele>497</ele>
        <time>2012-06-22T12:05:12Z</time>
      </trkpt>
      <trkpt lat="45.80995" lon="4.63299">
        <ele>493</ele>
        <time>2012-06-22T12:05:23Z</time>
      </trkpt>
      <trkpt lat="45.80977" lon="4.63289">
        <ele>493</ele>
        <time>2012-06-22T12:05:31Z</time>
      </trkpt>
      <trkpt lat="45.80959" lon="4.63261">
        <ele>492</ele>
        <time>2012-06-22T12:05:41Z</time>
      </trkpt>
      <trkpt lat="45.80937" lon="4.63228">
        <ele>493</ele>
        <time>2012-06-22T12:05:51Z</time>
      </trkpt>
      <trkpt lat="45.80912" lon="4.63191">
        <ele>486</ele>
        <time>2012-06-22T12:06:00Z</time>
      </trkpt>
      <trkpt lat="45.809" lon="4.63163">
        <ele>490</ele>
        <time>2012-06-22T12:06:06Z</time>
      </trkpt>
      <trkpt lat="45.80872" lon="4.63121">
        <ele>488</ele>
        <time>2012-06-22T12:06:16Z</time>
      </trkpt>
      <trkpt lat="45.80866" lon="4.63109">
        <ele>488</ele>
        <time>2012-06-22T12:06:18Z</time>
      </trkpt>
      <trkpt lat="45.80871" lon="4.63106">
        <ele>488</ele>
        <time>2012-06-22T12:06:22Z</time>
      </trkpt>
      <trkpt lat="45.80883" lon="4.63102">
        <ele>490</ele>
        <time>2012-06-22T12:06:27Z</time>
      </trkpt>
      <trkpt lat="45.80891" lon="4.63083">
        <ele>492</ele>
        <time>2012-06-22T12:06:34Z</time>
      </trkpt>
      <trkpt lat="45.809" lon="4.63059">
        <ele>494</ele>
        <time>2012-06-22T12:06:40Z</time>
      </trkpt>
      <trkpt lat="45.80917" lon="4.63045">
        <ele>495</ele>
        <time>2012-06-22T12:06:47Z</time>
      </trkpt>
      <trkpt lat="45.80914" lon="4.63025">
        <ele>494</ele>
        <time>2012-06-22T12:06:52Z</time>
      </trkpt>
      <trkpt lat="45.80902" lon="4.63031">
        <ele>494</ele>
        <time>2012-06-22T12:06:56Z</time>
      </trkpt>
      <trkpt lat="45.80897" lon="4.63046">
        <ele>494</ele>
        <time>2012-06-22T12:06:59Z</time>
      </trkpt>
      <trkpt lat="45.80884" lon="4.63077">
        <ele>493</ele>
        <time>2012-06-22T12:07:05Z</time>
      </trkpt>
      <trkpt lat="45.80874" lon="4.63091">
        <ele>489</ele>
        <time>2012-06-22T12:07:08Z</time>
      </trkpt>
      <trkpt lat="45.80868" lon="4.631">
        <ele>488</ele>
        <time>2012-06-22T12:07:10Z</time>
      </trkpt>
      <trkpt lat="45.80866" lon="4.63104">
        <ele>488</ele>
        <time>2012-06-22T12:07:11Z</time>
      </trkpt>
      <trkpt lat="45.80859" lon="4.6311">
        <ele>487</ele>
        <time>2012-06-22T12:07:16Z</time>
      </trkpt>
      <trkpt lat="45.80859" lon="4.631">
        <ele>487</ele>
        <time>2012-06-22T12:08:54Z</time>
      </trkpt>
      <trkpt lat="45.80847" lon="4.63081">
        <ele>488</ele>
        <time>2012-06-22T12:09:00Z</time>
      </trkpt>
      <trkpt lat="45.80842" lon="4.63078">
        <ele>487</ele>
        <time>2012-06-22T12:09:02Z</time>
      </trkpt>
      <trkpt lat="45.80818" lon="4.63065">
        <ele>481</ele>
        <time>2012-06-22T12:09:06Z</time>
      </trkpt>
      <trkpt lat="45.80803" lon="4.63055">
        <ele>480</ele>
        <time>2012-06-22T12:09:08Z</time>
      </trkpt>
      <trkpt lat="45.80753" lon="4.63035">
        <ele>477</ele>
        <time>2012-06-22T12:09:13Z</time>
      </trkpt>
      <trkpt lat="45.80728" lon="4.63024">
        <ele>470</ele>
        <time>2012-06-22T12:09:16Z</time>
      </trkpt>
      <trkpt lat="45.80721" lon="4.63022">
        <ele>469</ele>
        <time>2012-06-22T12:09:17Z</time>
      </trkpt>
      <trkpt lat="45.80701" lon="4.63013">
        <ele>468</ele>
        <time>2012-06-22T12:09:22Z</time>
      </trkpt>
      <trkpt lat="45.80694" lon="4.63022">
        <ele>467</ele>
        <time>2012-06-22T12:09:26Z</time>
      </trkpt>
      <trkpt lat="45.80695" lon="4.63033">
        <ele>467</ele>
        <time>2012-06-22T12:09:28Z</time>
      </trkpt>
      <trkpt lat="45.80704" lon="4.63065">
        <ele>466</ele>
        <time>2012-06-22T12:09:33Z</time>
      </trkpt>
      <trkpt lat="45.80758" lon="4.63124">
        <ele>468</ele>
        <time>2012-06-22T12:09:44Z</time>
      </trkpt>
      <trkpt lat="45.80772" lon="4.63141">
        <ele>467</ele>
        <time>2012-06-22T12:09:47Z</time>
      </trkpt>
      <trkpt lat="45.80783" lon="4.63173">
        <ele>461</ele>
        <time>2012-06-22T12:09:50Z</time>
      </trkpt>
      <trkpt lat="45.80791" lon="4.63212">
        <ele>461</ele>
        <time>2012-06-22T12:09:53Z</time>
      </trkpt>
      <trkpt lat="45.80795" lon="4.63237">
        <ele>461</ele>
        <time>2012-06-22T12:09:55Z</time>
      </trkpt>
      <trkpt lat="45.80798" lon="4.63289">
        <ele>457</ele>
        <time>2012-06-22T12:09:59Z</time>
      </trkpt>
      <trkpt lat="45.80787" lon="4.6334">
        <ele>452</ele>
        <time>2012-06-22T12:10:04Z</time>
      </trkpt>
      <trkpt lat="45.80783" lon="4.63382">
        <ele>451</ele>
        <time>2012-06-22T12:10:08Z</time>
      </trkpt>
      <trkpt lat="45.80776" lon="4.63435">
        <ele>447</ele>
        <time>2012-06-22T12:10:14Z</time>
      </trkpt>
      <trkpt lat="45.80775" lon="4.63471">
        <ele>446</ele>
        <time>2012-06-22T12:10:18Z</time>
      </trkpt>
      <trkpt lat="45.80775" lon="4.63488">
        <ele>445</ele>
        <time>2012-06-22T12:10:20Z</time>
      </trkpt>
      <trkpt lat="45.80779" lon="4.63529">
        <ele>439</ele>
        <time>2012-06-22T12:10:25Z</time>
      </trkpt>
      <trkpt lat="45.80783" lon="4.6356">
        <ele>438</ele>
        <time>2012-06-22T12:10:29Z</time>
      </trkpt>
      <trkpt lat="45.80788" lon="4.63606">
        <ele>430</ele>
        <time>2012-06-22T12:10:35Z</time>
      </trkpt>
      <trkpt lat="45.8079" lon="4.63623">
        <ele>430</ele>
        <time>2012-06-22T12:10:37Z</time>
      </trkpt>
      <trkpt lat="45.80788" lon="4.63663">
        <ele>428</ele>
        <time>2012-06-22T12:10:41Z</time>
      </trkpt>
      <trkpt lat="45.80786" lon="4.63688">
        <ele>423</ele>
        <time>2012-06-22T12:10:43Z</time>
      </trkpt>
      <trkpt lat="45.80771" lon="4.63744">
        <ele>422</ele>
        <time>2012-06-22T12:10:48Z</time>
      </trkpt>
      <trkpt lat="45.80765" lon="4.63774">
        <ele>419</ele>
        <time>2012-06-22T12:10:51Z</time>
      </trkpt>
      <trkpt lat="45.80762" lon="4.63822">
        <ele>419</ele>
        <time>2012-06-22T12:10:56Z</time>
      </trkpt>
      <trkpt lat="45.80765" lon="4.63858">
        <ele>415</ele>
        <time>2012-06-22T12:11:01Z</time>
      </trkpt>
      <trkpt lat="45.80766" lon="4.63883">
        <ele>414</ele>
        <time>2012-06-22T12:11:05Z</time>
      </trkpt>
      <trkpt lat="45.80764" lon="4.63935">
        <ele>409</ele>
        <time>2012-06-22T12:11:12Z</time>
      </trkpt>
      <trkpt lat="45.80765" lon="4.6396">
        <ele>407</ele>
        <time>2012-06-22T12:11:15Z</time>
      </trkpt>
      <trkpt lat="45.80767" lon="4.6398">
        <ele>406</ele>
        <time>2012-06-22T12:11:17Z</time>
      </trkpt>
      <trkpt lat="45.80761" lon="4.64036">
        <ele>402</ele>
        <time>2012-06-22T12:11:23Z</time>
      </trkpt>
      <trkpt lat="45.80756" lon="4.64064">
        <ele>400</ele>
        <time>2012-06-22T12:11:28Z</time>
      </trkpt>
      <trkpt lat="45.80756" lon="4.64069">
        <ele>400</ele>
        <time>2012-06-22T12:11:29Z</time>
      </trkpt>
      <trkpt lat="45.80751" lon="4.64108">
        <ele>397</ele>
        <time>2012-06-22T12:11:36Z</time>
      </trkpt>
      <trkpt lat="45.8074" lon="4.64151">
        <ele>395</ele>
        <time>2012-06-22T12:11:42Z</time>
      </trkpt>
      <trkpt lat="45.80723" lon="4.64199">
        <ele>393</ele>
        <time>2012-06-22T12:11:48Z</time>
      </trkpt>
      <trkpt lat="45.80718" lon="4.64207">
        <ele>393</ele>
        <time>2012-06-22T12:11:52Z</time>
      </trkpt>
      <trkpt lat="45.80717" lon="4.64206">
        <ele>393</ele>
        <time>2012-06-22T12:11:54Z</time>
      </trkpt>
      <trkpt lat="45.80711" lon="4.64203">
        <ele>393</ele>
        <time>2012-06-22T12:12:00Z</time>
      </trkpt>
      <trkpt lat="45.80699" lon="4.64184">
        <ele>394</ele>
        <time>2012-06-22T12:12:09Z</time>
      </trkpt>
      <trkpt lat="45.80683" lon="4.64152">
        <ele>395</ele>
        <time>2012-06-22T12:12:19Z</time>
      </trkpt>
      <trkpt lat="45.80669" lon="4.64132">
        <ele>395</ele>
        <time>2012-06-22T12:12:26Z</time>
      </trkpt>
      <trkpt lat="45.80645" lon="4.64131">
        <ele>394</ele>
        <time>2012-06-22T12:12:32Z</time>
      </trkpt>
      <trkpt lat="45.80632" lon="4.64139">
        <ele>394</ele>
        <time>2012-06-22T12:12:39Z</time>
      </trkpt>
      <trkpt lat="45.80627" lon="4.64146">
        <ele>395</ele>
        <time>2012-06-22T12:12:41Z</time>
      </trkpt>
      <trkpt lat="45.80625" lon="4.6417">
        <ele>396</ele>
        <time>2012-06-22T12:12:45Z</time>
      </trkpt>
      <trkpt lat="45.80624" lon="4.64231">
        <ele>396</ele>
        <time>2012-06-22T12:12:55Z</time>
      </trkpt>
      <trkpt lat="45.80608" lon="4.64291">
        <ele>396</ele>
        <time>2012-06-22T12:13:05Z</time>
      </trkpt>
      <trkpt lat="45.80587" lon="4.64351">
        <ele>395</ele>
        <time>2012-06-22T12:13:15Z</time>
      </trkpt>
      <trkpt lat="45.80556" lon="4.64426">
        <ele>399</ele>
        <time>2012-06-22T12:13:28Z</time>
      </trkpt>
      <trkpt lat="45.80529" lon="4.64503">
        <ele>400</ele>
        <time>2012-06-22T12:13:41Z</time>
      </trkpt>
      <trkpt lat="45.8052" lon="4.64537">
        <ele>400</ele>
        <time>2012-06-22T12:13:47Z</time>
      </trkpt>
      <trkpt lat="45.80496" lon="4.64587">
        <ele>406</ele>
        <time>2012-06-22T12:13:57Z</time>
      </trkpt>
      <trkpt lat="45.8048" lon="4.6462">
        <ele>412</ele>
        <time>2012-06-22T12:14:05Z</time>
      </trkpt>
      <trkpt lat="45.80448" lon="4.64707">
        <ele>415</ele>
        <time>2012-06-22T12:14:27Z</time>
      </trkpt>
      <trkpt lat="45.8043" lon="4.64776">
        <ele>415</ele>
        <time>2012-06-22T12:14:46Z</time>
      </trkpt>
      <trkpt lat="45.80394" lon="4.64823">
        <ele>423</ele>
        <time>2012-06-22T12:15:10Z</time>
      </trkpt>
      <trkpt lat="45.80383" lon="4.64827">
        <ele>424</ele>
        <time>2012-06-22T12:15:22Z</time>
      </trkpt>
      <trkpt lat="45.80386" lon="4.64819">
        <ele>423</ele>
        <time>2012-06-22T12:15:31Z</time>
      </trkpt>
      <trkpt lat="45.80396" lon="4.64793">
        <ele>424</ele>
        <time>2012-06-22T12:15:43Z</time>
      </trkpt>
      <trkpt lat="45.80401" lon="4.64766">
        <ele>424</ele>
        <time>2012-06-22T12:16:02Z</time>
      </trkpt>
      <trkpt lat="45.80397" lon="4.64761">
        <ele>424</ele>
        <time>2012-06-22T12:16:14Z</time>
      </trkpt>
      <trkpt lat="45.80393" lon="4.64762">
        <ele>424</ele>
        <time>2012-06-22T12:16:22Z</time>
      </trkpt>
      <trkpt lat="45.80391" lon="4.6476">
        <ele>424</ele>
        <time>2012-06-22T12:16:35Z</time>
      </trkpt>
      <trkpt lat="45.80387" lon="4.64759">
        <ele>425</ele>
        <time>2012-06-22T12:16:39Z</time>
      </trkpt>
      <trkpt lat="45.80368" lon="4.64755">
        <ele>427</ele>
        <time>2012-06-22T12:16:54Z</time>
      </trkpt>
      <trkpt lat="45.80352" lon="4.64742">
        <ele>431</ele>
        <time>2012-06-22T12:17:07Z</time>
      </trkpt>
      <trkpt lat="45.80341" lon="4.64718">
        <ele>431</ele>
        <time>2012-06-22T12:17:20Z</time>
      </trkpt>
      <trkpt lat="45.80345" lon="4.64613">
        <ele>430</ele>
        <time>2012-06-22T12:17:54Z</time>
      </trkpt>
      <trkpt lat="45.80342" lon="4.64612">
        <ele>430</ele>
        <time>2012-06-22T12:18:19Z</time>
      </trkpt>
      <trkpt lat="45.80331" lon="4.64588">
        <ele>432</ele>
        <time>2012-06-22T12:18:29Z</time>
      </trkpt>
      <trkpt lat="45.80316" lon="4.64557">
        <ele>431</ele>
        <time>2012-06-22T12:18:36Z</time>
      </trkpt>
      <trkpt lat="45.80293" lon="4.6455">
        <ele>431</ele>
        <time>2012-06-22T12:18:42Z</time>
      </trkpt>
      <trkpt lat="45.80285" lon="4.64548">
        <ele>431</ele>
        <time>2012-06-22T12:18:44Z</time>
      </trkpt>
      <trkpt lat="45.80232" lon="4.64552">
        <ele>430</ele>
        <time>2012-06-22T12:18:56Z</time>
      </trkpt>
      <trkpt lat="45.80134" lon="4.64556">
        <ele>420</ele>
        <time>2012-06-22T12:19:21Z</time>
      </trkpt>
      <trkpt lat="45.80094" lon="4.64593">
        <ele>418</ele>
        <time>2012-06-22T12:19:42Z</time>
      </trkpt>
      <trkpt lat="45.80087" lon="4.64611">
        <ele>419</ele>
        <time>2012-06-22T12:19:45Z</time>
      </trkpt>
      <trkpt lat="45.8006" lon="4.64635">
        <ele>407</ele>
        <time>2012-06-22T12:19:58Z</time>
      </trkpt>
      <trkpt lat="45.80052" lon="4.64642">
        <ele>406</ele>
        <time>2012-06-22T12:20:01Z</time>
      </trkpt>
      <trkpt lat="45.80041" lon="4.6465">
        <ele>405</ele>
        <time>2012-06-22T12:20:06Z</time>
      </trkpt>
      <trkpt lat="45.80039" lon="4.64646">
        <ele>405</ele>
        <time>2012-06-22T12:20:08Z</time>
      </trkpt>
      <trkpt lat="45.80008" lon="4.64654">
        <ele>399</ele>
        <time>2012-06-22T12:20:14Z</time>
      </trkpt>
      <trkpt lat="45.80009" lon="4.64649">
        <ele>400</ele>
        <time>2012-06-22T12:20:22Z</time>
      </trkpt>
      <trkpt lat="45.80003" lon="4.64656">
        <ele>398</ele>
        <time>2012-06-22T12:20:25Z</time>
      </trkpt>
      <trkpt lat="45.80001" lon="4.64669">
        <ele>396</ele>
        <time>2012-06-22T12:20:32Z</time>
      </trkpt>
      <trkpt lat="45.8" lon="4.64671">
        <ele>397</ele>
        <time>2012-06-22T12:20:41Z</time>
      </trkpt>
      <trkpt lat="45.79999" lon="4.64683">
        <ele>395</ele>
        <time>2012-06-22T12:21:10Z</time>
      </trkpt>
      <trkpt lat="45.79996" lon="4.64707">
        <ele>395</ele>
        <time>2012-06-22T12:21:18Z</time>
      </trkpt>
      <trkpt lat="45.79997" lon="4.64733">
        <ele>396</ele>
        <time>2012-06-22T12:21:27Z</time>
      </trkpt>
      <trkpt lat="45.79998" lon="4.64775">
        <ele>397</ele>
        <time>2012-06-22T12:21:39Z</time>
      </trkpt>
      <trkpt lat="45.80002" lon="4.64816">
        <ele>401</ele>
        <time>2012-06-22T12:21:52Z</time>
      </trkpt>
      <trkpt lat="45.79996" lon="4.64853">
        <ele>399</ele>
        <time>2012-06-22T12:22:03Z</time>
      </trkpt>
      <trkpt lat="45.79992" lon="4.64871">
        <ele>399</ele>
        <time>2012-06-22T12:22:09Z</time>
      </trkpt>
      <trkpt lat="45.79983" lon="4.6489">
        <ele>400</ele>
        <time>2012-06-22T12:22:15Z</time>
      </trkpt>
      <trkpt lat="45.79963" lon="4.64911">
        <ele>399</ele>
        <time>2012-06-22T12:22:25Z</time>
      </trkpt>
      <trkpt lat="45.79942" lon="4.64938">
        <ele>401</ele>
        <time>2012-06-22T12:22:34Z</time>
      </trkpt>
      <trkpt lat="45.7993" lon="4.6497">
        <ele>402</ele>
        <time>2012-06-22T12:22:43Z</time>
      </trkpt>
      <trkpt lat="45.79914" lon="4.64996">
        <ele>403</ele>
        <time>2012-06-22T12:22:51Z</time>
      </trkpt>
      <trkpt lat="45.79879" lon="4.65044">
        <ele>407</ele>
        <time>2012-06-22T12:23:05Z</time>
      </trkpt>
      <trkpt lat="45.79861" lon="4.65074">
        <ele>408</ele>
        <time>2012-06-22T12:23:14Z</time>
      </trkpt>
      <trkpt lat="45.79804" lon="4.65104">
        <ele>414</ele>
        <time>2012-06-22T12:23:34Z</time>
      </trkpt>
      <trkpt lat="45.798" lon="4.65104">
        <ele>414</ele>
        <time>2012-06-22T12:23:35Z</time>
      </trkpt>
      <trkpt lat="45.79781" lon="4.65102">
        <ele>415</ele>
        <time>2012-06-22T12:23:45Z</time>
      </trkpt>
      <trkpt lat="45.79773" lon="4.65103">
        <ele>415</ele>
        <time>2012-06-22T12:23:49Z</time>
      </trkpt>
      <trkpt lat="45.79747" lon="4.65115">
        <ele>421</ele>
        <time>2012-06-22T12:24:00Z</time>
      </trkpt>
      <trkpt lat="45.7973" lon="4.65123">
        <ele>422</ele>
        <time>2012-06-22T12:24:09Z</time>
      </trkpt>
      <trkpt lat="45.79713" lon="4.65123">
        <ele>423</ele>
        <time>2012-06-22T12:24:20Z</time>
      </trkpt>
      <trkpt lat="45.79688" lon="4.65126">
        <ele>425</ele>
        <time>2012-06-22T12:24:35Z</time>
      </trkpt>
      <trkpt lat="45.79675" lon="4.65132">
        <ele>426</ele>
        <time>2012-06-22T12:24:44Z</time>
      </trkpt>
      <trkpt lat="45.7965" lon="4.65137">
        <ele>436</ele>
        <time>2012-06-22T12:24:58Z</time>
      </trkpt>
      <trkpt lat="45.79635" lon="4.65133">
        <ele>437</ele>
        <time>2012-06-22T12:25:09Z</time>
      </trkpt>
      <trkpt lat="45.79569" lon="4.65081">
        <ele>438</ele>
        <time>2012-06-22T12:25:41Z</time>
      </trkpt>
      <trkpt lat="45.79519" lon="4.65033">
        <ele>438</ele>
        <time>2012-06-22T12:26:07Z</time>
      </trkpt>
      <trkpt lat="45.79435" lon="4.64989">
        <ele>441</ele>
        <time>2012-06-22T12:26:59Z</time>
      </trkpt>
      <trkpt lat="45.79405" lon="4.64971">
        <ele>445</ele>
        <time>2012-06-22T12:27:15Z</time>
      </trkpt>
      <trkpt lat="45.7934" lon="4.64973">
        <ele>448</ele>
        <time>2012-06-22T12:28:06Z</time>
      </trkpt>
      <trkpt lat="45.79343" lon="4.6497">
        <ele>448</ele>
        <time>2012-06-22T12:28:16Z</time>
      </trkpt>
      <trkpt lat="45.79409" lon="4.65059">
        <ele>454</ele>
        <time>2012-06-22T12:30:36Z</time>
      </trkpt>
      <trkpt lat="45.79443" lon="4.65113">
        <ele>458</ele>
        <time>2012-06-22T12:30:45Z</time>
      </trkpt>
      <trkpt lat="45.79436" lon="4.65121">
        <ele>459</ele>
        <time>2012-06-22T12:30:50Z</time>
      </trkpt>
      <trkpt lat="45.79437" lon="4.65124">
        <ele>459</ele>
        <time>2012-06-22T12:30:52Z</time>
      </trkpt>
      <trkpt lat="45.7946" lon="4.65155">
        <ele>460</ele>
        <time>2012-06-22T12:31:06Z</time>
      </trkpt>
      <trkpt lat="45.79466" lon="4.65174">
        <ele>468</ele>
        <time>2012-06-22T12:31:18Z</time>
      </trkpt>
      <trkpt lat="45.79477" lon="4.65188">
        <ele>468</ele>
        <time>2012-06-22T12:31:31Z</time>
      </trkpt>
      <trkpt lat="45.79473" lon="4.65197">
        <ele>469</ele>
        <time>2012-06-22T12:31:40Z</time>
      </trkpt>
      <trkpt lat="45.79475" lon="4.65195">
        <ele>468</ele>
        <time>2012-06-22T12:31:52Z</time>
      </trkpt>
      <trkpt lat="45.79474" lon="4.65191">
        <ele>468</ele>
        <time>2012-06-22T12:32:10Z</time>
      </trkpt>
      <trkpt lat="45.79462" lon="4.6521">
        <ele>470</ele>
        <time>2012-06-22T12:32:22Z</time>
      </trkpt>
      <trkpt lat="45.79456" lon="4.65235">
        <ele>472</ele>
        <time>2012-06-22T12:32:40Z</time>
      </trkpt>
      <trkpt lat="45.79448" lon="4.65283">
        <ele>478</ele>
        <time>2012-06-22T12:33:08Z</time>
      </trkpt>
      <trkpt lat="45.79441" lon="4.65294">
        <ele>478</ele>
        <time>2012-06-22T12:33:19Z</time>
      </trkpt>
      <trkpt lat="45.79438" lon="4.65295">
        <ele>478</ele>
        <time>2012-06-22T12:33:22Z</time>
      </trkpt>
      <trkpt lat="45.79429" lon="4.65307">
        <ele>479</ele>
        <time>2012-06-22T12:33:32Z</time>
      </trkpt>
      <trkpt lat="45.79423" lon="4.65322">
        <ele>481</ele>
        <time>2012-06-22T12:33:42Z</time>
      </trkpt>
      <trkpt lat="45.79419" lon="4.65323">
        <ele>481</ele>
        <time>2012-06-22T12:33:47Z</time>
      </trkpt>
      <trkpt lat="45.79402" lon="4.65329">
        <ele>484</ele>
        <time>2012-06-22T12:33:59Z</time>
      </trkpt>
      <trkpt lat="45.79383" lon="4.65336">
        <ele>487</ele>
        <time>2012-06-22T12:34:12Z</time>
      </trkpt>
      <trkpt lat="45.79368" lon="4.65342">
        <ele>488</ele>
        <time>2012-06-22T12:34:23Z</time>
      </trkpt>
      <trkpt lat="45.79348" lon="4.65351">
        <ele>490</ele>
        <time>2012-06-22T12:34:37Z</time>
      </trkpt>
      <trkpt lat="45.79341" lon="4.65357">
        <ele>490</ele>
        <time>2012-06-22T12:34:43Z</time>
      </trkpt>
      <trkpt lat="45.79326" lon="4.65373">
        <ele>497</ele>
        <time>2012-06-22T12:34:56Z</time>
      </trkpt>
      <trkpt lat="45.79313" lon="4.65388">
        <ele>497</ele>
        <time>2012-06-22T12:35:06Z</time>
      </trkpt>
      <trkpt lat="45.79297" lon="4.65405">
        <ele>499</ele>
        <time>2012-06-22T12:35:19Z</time>
      </trkpt>
      <trkpt lat="45.79294" lon="4.65412">
        <ele>499</ele>
        <time>2012-06-22T12:35:27Z</time>
      </trkpt>
      <trkpt lat="45.79297" lon="4.65407">
        <ele>499</ele>
        <time>2012-06-22T12:36:22Z</time>
      </trkpt>
      <trkpt lat="45.79299" lon="4.65408">
        <ele>499</ele>
        <time>2012-06-22T12:36:29Z</time>
      </trkpt>
      <trkpt lat="45.79248" lon="4.65539">
        <ele>510</ele>
        <time>2012-06-22T12:38:44Z</time>
      </trkpt>
      <trkpt lat="45.79222" lon="4.65601">
        <ele>502</ele>
        <time>2012-06-22T12:39:05Z</time>
      </trkpt>
      <trkpt lat="45.7915" lon="4.65701">
        <ele>504</ele>
        <time>2012-06-22T12:39:34Z</time>
      </trkpt>
      <trkpt lat="45.79113" lon="4.65734">
        <ele>505</ele>
        <time>2012-06-22T12:39:47Z</time>
      </trkpt>
      <trkpt lat="45.79087" lon="4.657">
        <ele>506</ele>
        <time>2012-06-22T12:39:59Z</time>
      </trkpt>
      <trkpt lat="45.79071" lon="4.65682">
        <ele>505</ele>
        <time>2012-06-22T12:40:12Z</time>
      </trkpt>
      <trkpt lat="45.79052" lon="4.6566">
        <ele>508</ele>
        <time>2012-06-22T12:40:23Z</time>
      </trkpt>
      <trkpt lat="45.79037" lon="4.65639">
        <ele>508</ele>
        <time>2012-06-22T12:40:33Z</time>
      </trkpt>
      <trkpt lat="45.79027" lon="4.65626">
        <ele>508</ele>
        <time>2012-06-22T12:40:41Z</time>
      </trkpt>
      <trkpt lat="45.79018" lon="4.65605">
        <ele>509</ele>
        <time>2012-06-22T12:40:48Z</time>
      </trkpt>
      <trkpt lat="45.79012" lon="4.65578">
        <ele>513</ele>
        <time>2012-06-22T12:40:58Z</time>
      </trkpt>
      <trkpt lat="45.79005" lon="4.65543">
        <ele>517</ele>
        <time>2012-06-22T12:41:11Z</time>
      </trkpt>
      <trkpt lat="45.78987" lon="4.65466">
        <ele>516</ele>
        <time>2012-06-22T12:41:39Z</time>
      </trkpt>
      <trkpt lat="45.78983" lon="4.65438">
        <ele>518</ele>
        <time>2012-06-22T12:41:52Z</time>
      </trkpt>
      <trkpt lat="45.78984" lon="4.65408">
        <ele>522</ele>
        <time>2012-06-22T12:42:05Z</time>
      </trkpt>
      <trkpt lat="45.78992" lon="4.65324">
        <ele>527</ele>
        <time>2012-06-22T12:42:43Z</time>
      </trkpt>
      <trkpt lat="45.78994" lon="4.65294">
        <ele>528</ele>
        <time>2012-06-22T12:42:55Z</time>
      </trkpt>
      <trkpt lat="45.78993" lon="4.65255">
        <ele>531</ele>
        <time>2012-06-22T12:43:09Z</time>
      </trkpt>
      <trkpt lat="45.7899" lon="4.65247">
        <ele>533</ele>
        <time>2012-06-22T12:43:18Z</time>
      </trkpt>
      <trkpt lat="45.78993" lon="4.65245">
        <ele>533</ele>
        <time>2012-06-22T12:43:43Z</time>
      </trkpt>
      <trkpt lat="45.78995" lon="4.65236">
        <ele>533</ele>
        <time>2012-06-22T12:44:08Z</time>
      </trkpt>
      <trkpt lat="45.78974" lon="4.65221">
        <ele>534</ele>
        <time>2012-06-22T12:44:22Z</time>
      </trkpt>
      <trkpt lat="45.78948" lon="4.65178">
        <ele>537</ele>
        <time>2012-06-22T12:44:44Z</time>
      </trkpt>
      <trkpt lat="45.78946" lon="4.65169">
        <ele>538</ele>
        <time>2012-06-22T12:44:48Z</time>
      </trkpt>
      <trkpt lat="45.78937" lon="4.65149">
        <ele>545</ele>
        <time>2012-06-22T12:45:00Z</time>
      </trkpt>
      <trkpt lat="45.78926" lon="4.65134">
        <ele>546</ele>
        <time>2012-06-22T12:45:10Z</time>
      </trkpt>
      <trkpt lat="45.78908" lon="4.6513">
        <ele>551</ele>
        <time>2012-06-22T12:45:21Z</time>
      </trkpt>
      <trkpt lat="45.78891" lon="4.65123">
        <ele>552</ele>
        <time>2012-06-22T12:45:33Z</time>
      </trkpt>
      <trkpt lat="45.78873" lon="4.65117">
        <ele>553</ele>
        <time>2012-06-22T12:45:45Z</time>
      </trkpt>
      <trkpt lat="45.78855" lon="4.65114">
        <ele>554</ele>
        <time>2012-06-22T12:45:56Z</time>
      </trkpt>
      <trkpt lat="45.7884" lon="4.6511">
        <ele>555</ele>
        <time>2012-06-22T12:46:06Z</time>
      </trkpt>
      <trkpt lat="45.78824" lon="4.65105">
        <ele>555</ele>
        <time>2012-06-22T12:46:15Z</time>
      </trkpt>
      <trkpt lat="45.78803" lon="4.65092">
        <ele>554</ele>
        <time>2012-06-22T12:46:26Z</time>
      </trkpt>
      <trkpt lat="45.78791" lon="4.65076">
        <ele>566</ele>
        <time>2012-06-22T12:46:36Z</time>
      </trkpt>
      <trkpt lat="45.78785" lon="4.65064">
        <ele>567</ele>
        <time>2012-06-22T12:46:42Z</time>
      </trkpt>
      <trkpt lat="45.78772" lon="4.6505">
        <ele>568</ele>
        <time>2012-06-22T12:46:52Z</time>
      </trkpt>
      <trkpt lat="45.7877" lon="4.65048">
        <ele>568</ele>
        <time>2012-06-22T12:46:54Z</time>
      </trkpt>
      <trkpt lat="45.78758" lon="4.65041">
        <ele>569</ele>
        <time>2012-06-22T12:47:34Z</time>
      </trkpt>
      <trkpt lat="45.78753" lon="4.65015">
        <ele>574</ele>
        <time>2012-06-22T12:47:48Z</time>
      </trkpt>
      <trkpt lat="45.78753" lon="4.6501">
        <ele>575</ele>
        <time>2012-06-22T12:47:50Z</time>
      </trkpt>
      <trkpt lat="45.78756" lon="4.64974">
        <ele>581</ele>
        <time>2012-06-22T12:48:17Z</time>
      </trkpt>
      <trkpt lat="45.78734" lon="4.64974">
        <ele>587</ele>
        <time>2012-06-22T12:49:35Z</time>
      </trkpt>
      <trkpt lat="45.7873" lon="4.64969">
        <ele>587</ele>
        <time>2012-06-22T12:49:41Z</time>
      </trkpt>
      <trkpt lat="45.78719" lon="4.64959">
        <ele>589</ele>
        <time>2012-06-22T12:49:53Z</time>
      </trkpt>
      <trkpt lat="45.7871" lon="4.64952">
        <ele>590</ele>
        <time>2012-06-22T12:50:03Z</time>
      </trkpt>
      <trkpt lat="45.78701" lon="4.6493">
        <ele>593</ele>
        <time>2012-06-22T12:50:19Z</time>
      </trkpt>
      <trkpt lat="45.78705" lon="4.6491">
        <ele>601</ele>
        <time>2012-06-22T12:50:30Z</time>
      </trkpt>
      <trkpt lat="45.78704" lon="4.64892">
        <ele>602</ele>
        <time>2012-06-22T12:50:42Z</time>
      </trkpt>
      <trkpt lat="45.78706" lon="4.64882">
        <ele>602</ele>
        <time>2012-06-22T12:50:47Z</time>
      </trkpt>
      <trkpt lat="45.78708" lon="4.64865">
        <ele>603</ele>
        <time>2012-06-22T12:50:58Z</time>
      </trkpt>
      <trkpt lat="45.7871" lon="4.6486">
        <ele>603</ele>
        <time>2012-06-22T12:51:12Z</time>
      </trkpt>
      <trkpt lat="45.78682" lon="4.64853">
        <ele>608</ele>
        <time>2012-06-22T12:54:14Z</time>
      </trkpt>
      <trkpt lat="45.7864" lon="4.64851">
        <ele>616</ele>
        <time>2012-06-22T12:55:45Z</time>
      </trkpt>
      <trkpt lat="45.78628" lon="4.64849">
        <ele>617</ele>
        <time>2012-06-22T12:55:57Z</time>
      </trkpt>
      <trkpt lat="45.78601" lon="4.64846">
        <ele>620</ele>
        <time>2012-06-22T12:56:29Z</time>
      </trkpt>
      <trkpt lat="45.78575" lon="4.64821">
        <ele>631</ele>
        <time>2012-06-22T12:56:56Z</time>
      </trkpt>
      <trkpt lat="45.78553" lon="4.64795">
        <ele>632</ele>
        <time>2012-06-22T12:57:19Z</time>
      </trkpt>
      <trkpt lat="45.78543" lon="4.64779">
        <ele>633</ele>
        <time>2012-06-22T12:57:31Z</time>
      </trkpt>
      <trkpt lat="45.78542" lon="4.64778">
        <ele>633</ele>
        <time>2012-06-22T12:57:32Z</time>
      </trkpt>
      <trkpt lat="45.7853" lon="4.64777">
        <ele>633</ele>
        <time>2012-06-22T12:57:46Z</time>
      </trkpt>
      <trkpt lat="45.78526" lon="4.64772">
        <ele>633</ele>
        <time>2012-06-22T12:58:10Z</time>
      </trkpt>
      <trkpt lat="45.78523" lon="4.64773">
        <ele>633</ele>
        <time>2012-06-22T12:58:24Z</time>
      </trkpt>
      <trkpt lat="45.78515" lon="4.64788">
        <ele>633</ele>
        <time>2012-06-22T12:58:34Z</time>
      </trkpt>
      <trkpt lat="45.78485" lon="4.64835">
        <ele>623</ele>
        <time>2012-06-22T12:59:00Z</time>
      </trkpt>
      <trkpt lat="45.78482" lon="4.64842">
        <ele>621</ele>
        <time>2012-06-22T12:59:03Z</time>
      </trkpt>
      <trkpt lat="45.78448" lon="4.64876">
        <ele>614</ele>
        <time>2012-06-22T12:59:19Z</time>
      </trkpt>
      <trkpt lat="45.78414" lon="4.64886">
        <ele>607</ele>
        <time>2012-06-22T12:59:36Z</time>
      </trkpt>
      <trkpt lat="45.78403" lon="4.64885">
        <ele>606</ele>
        <time>2012-06-22T12:59:55Z</time>
      </trkpt>
      <trkpt lat="45.78403" lon="4.6488">
        <ele>607</ele>
        <time>2012-06-22T12:59:58Z</time>
      </trkpt>
      <trkpt lat="45.78395" lon="4.64815">
        <ele>613</ele>
        <time>2012-06-22T13:00:09Z</time>
      </trkpt>
      <trkpt lat="45.78358" lon="4.6474">
        <ele>616</ele>
        <time>2012-06-22T13:00:29Z</time>
      </trkpt>
      <trkpt lat="45.78232" lon="4.64616">
        <ele>621</ele>
        <time>2012-06-22T13:01:27Z</time>
      </trkpt>
      <trkpt lat="45.78077" lon="4.64472">
        <ele>644</ele>
        <time>2012-06-22T13:03:15Z</time>
      </trkpt>
      <trkpt lat="45.78034" lon="4.64465">
        <ele>643</ele>
        <time>2012-06-22T13:03:26Z</time>
      </trkpt>
      <trkpt lat="45.78021" lon="4.6445">
        <ele>643</ele>
        <time>2012-06-22T13:03:43Z</time>
      </trkpt>
      <trkpt lat="45.78015" lon="4.64444">
        <ele>643</ele>
        <time>2012-06-22T13:03:51Z</time>
      </trkpt>
      <trkpt lat="45.78012" lon="4.64444">
        <ele>643</ele>
        <time>2012-06-22T13:03:58Z</time>
      </trkpt>
      <trkpt lat="45.78012" lon="4.64449">
        <ele>643</ele>
        <time>2012-06-22T13:04:19Z</time>
      </trkpt>
      <trkpt lat="45.78012" lon="4.64443">
        <ele>643</ele>
        <time>2012-06-22T13:04:24Z</time>
      </trkpt>
      <trkpt lat="45.78013" lon="4.64437">
        <ele>642</ele>
        <time>2012-06-22T13:05:44Z</time>
      </trkpt>
      <trkpt lat="45.78012" lon="4.64435">
        <ele>642</ele>
        <time>2012-06-22T13:05:46Z</time>
      </trkpt>
      <trkpt lat="45.7801" lon="4.64433">
        <ele>642</ele>
        <time>2012-06-22T13:05:52Z</time>
      </trkpt>
      <trkpt lat="45.78007" lon="4.64431">
        <ele>642</ele>
        <time>2012-06-22T13:06:32Z</time>
      </trkpt>
      <trkpt lat="45.77987" lon="4.64398">
        <ele>637</ele>
        <time>2012-06-22T13:06:44Z</time>
      </trkpt>
      <trkpt lat="45.77965" lon="4.64349">
        <ele>636</ele>
        <time>2012-06-22T13:06:51Z</time>
      </trkpt>
      <trkpt lat="45.77953" lon="4.64327">
        <ele>635</ele>
        <time>2012-06-22T13:06:54Z</time>
      </trkpt>
      <trkpt lat="45.77945" lon="4.64311">
        <ele>634</ele>
        <time>2012-06-22T13:06:56Z</time>
      </trkpt>
      <trkpt lat="45.77874" lon="4.64179">
        <ele>616</ele>
        <time>2012-06-22T13:07:10Z</time>
      </trkpt>
      <trkpt lat="45.77862" lon="4.64157">
        <ele>614</ele>
        <time>2012-06-22T13:07:12Z</time>
      </trkpt>
      <trkpt lat="45.77694" lon="4.63941">
        <ele>603</ele>
        <time>2012-06-22T13:08:20Z</time>
      </trkpt>
      <trkpt lat="45.77698" lon="4.63933">
        <ele>603</ele>
        <time>2012-06-22T13:08:26Z</time>
      </trkpt>
      <trkpt lat="45.77691" lon="4.63931">
        <ele>603</ele>
        <time>2012-06-22T13:08:28Z</time>
      </trkpt>
      <trkpt lat="45.77671" lon="4.63911">
        <ele>604</ele>
        <time>2012-06-22T13:08:40Z</time>
      </trkpt>
      <trkpt lat="45.77641" lon="4.63888">
        <ele>605</ele>
        <time>2012-06-22T13:08:51Z</time>
      </trkpt>
      <trkpt lat="45.77586" lon="4.63856">
        <ele>607</ele>
        <time>2012-06-22T13:09:04Z</time>
      </trkpt>
      <trkpt lat="45.77546" lon="4.63833">
        <ele>617</ele>
        <time>2012-06-22T13:09:16Z</time>
      </trkpt>
      <trkpt lat="45.77519" lon="4.63807">
        <ele>621</ele>
        <time>2012-06-22T13:09:31Z</time>
      </trkpt>
      <trkpt lat="45.77517" lon="4.63802">
        <ele>621</ele>
        <time>2012-06-22T13:09:34Z</time>
      </trkpt>
      <trkpt lat="45.775" lon="4.63778">
        <ele>633</ele>
        <time>2012-06-22T13:09:50Z</time>
      </trkpt>
      <trkpt lat="45.77499" lon="4.63773">
        <ele>632</ele>
        <time>2012-06-22T13:09:54Z</time>
      </trkpt>
      <trkpt lat="45.77477" lon="4.63741">
        <ele>630</ele>
        <time>2012-06-22T13:10:26Z</time>
      </trkpt>
      <trkpt lat="45.77386" lon="4.6381">
        <ele>653</ele>
      </trkpt>
      <trkpt lat="45.7731" lon="4.63856">
        <ele>661</ele>
      </trkpt>
      <trkpt lat="45.77241" lon="4.6381">
        <ele>670</ele>
      </trkpt>
      <trkpt lat="45.77229" lon="4.63792">
        <ele>672</ele>
      </trkpt>
      <trkpt lat="45.77216" lon="4.6372">
        <ele>681</ele>
      </trkpt>
      <trkpt lat="45.7721" lon="4.63711">
        <ele>682</ele>
      </trkpt>
      <trkpt lat="45.77115" lon="4.63684">
        <ele>697</ele>
      </trkpt>
      <trkpt lat="45.77097" lon="4.63684">
        <ele>700</ele>
      </trkpt>
      <trkpt lat="45.7704" lon="4.63684">
        <ele>706</ele>
      </trkpt>
      <trkpt lat="45.76965" lon="4.63684">
        <ele>709</ele>
      </trkpt>
      <trkpt lat="45.76952" lon="4.63684">
        <ele>708</ele>
      </trkpt>
      <trkpt lat="45.76877" lon="4.63549">
        <ele>713</ele>
      </trkpt>
      <trkpt lat="45.76814" lon="4.63351">
        <ele>713</ele>
      </trkpt>
      <trkpt lat="45.76719" lon="4.6317">
        <ele>722</ele>
      </trkpt>
      <trkpt lat="45.76612" lon="4.63071">
        <ele>728</ele>
      </trkpt>
      <trkpt lat="45.76531" lon="4.63062">
        <ele>729</ele>
      </trkpt>
      <trkpt lat="45.76493" lon="4.63062">
        <ele>731</ele>
      </trkpt>
      <trkpt lat="45.76399" lon="4.63053">
        <ele>731</ele>
      </trkpt>
      <trkpt lat="45.76304" lon="4.62927">
        <ele>723</ele>
      </trkpt>
      <trkpt lat="45.76254" lon="4.62882">
        <ele>724</ele>
      </trkpt>
      <trkpt lat="45.76331" lon="4.6289">
        <ele>722</ele>
        <time>2012-06-22T13:21:54Z</time>
      </trkpt>
      <trkpt lat="45.76331" lon="4.6289">
        <ele>722</ele>
        <time>2012-06-22T13:21:55Z</time>
      </trkpt>
      <trkpt lat="45.76302" lon="4.62875">
        <ele>723</ele>
        <time>2012-06-22T13:22:02Z</time>
      </trkpt>
      <trkpt lat="45.76286" lon="4.62877">
        <ele>723</ele>
        <time>2012-06-22T13:22:27Z</time>
      </trkpt>
      <trkpt lat="45.76292" lon="4.62883">
        <ele>723</ele>
        <time>2012-06-22T13:23:15Z</time>
      </trkpt>
      <trkpt lat="45.76288" lon="4.62883">
        <ele>723</ele>
        <time>2012-06-22T13:24:29Z</time>
      </trkpt>
      <trkpt lat="45.76288" lon="4.62883">
        <ele>723</ele>
        <time>2012-06-22T13:24:30Z</time>
      </trkpt>
      <trkpt lat="45.76287" lon="4.62882">
        <ele>723</ele>
        <time>2012-06-22T13:24:52Z</time>
      </trkpt>
      <trkpt lat="45.7622" lon="4.62873">
        <ele>725</ele>
      </trkpt>
      <trkpt lat="45.76213" lon="4.62873">
        <ele>725</ele>
      </trkpt>
      <trkpt lat="45.76177" lon="4.62858">
        <ele>726</ele>
      </trkpt>
      <trkpt lat="45.76177" lon="4.62855">
        <ele>727</ele>
      </trkpt>
      <trkpt lat="45.76168" lon="4.62824">
        <ele>733</ele>
      </trkpt>
      <trkpt lat="45.7615" lon="4.62785">
        <ele>740</ele>
      </trkpt>
      <trkpt lat="45.76129" lon="4.62767">
        <ele>742</ele>
      </trkpt>
      <trkpt lat="45.76127" lon="4.62767">
        <ele>742</ele>
      </trkpt>
      <trkpt lat="45.76104" lon="4.62767">
        <ele>744</ele>
      </trkpt>
      <trkpt lat="45.76099" lon="4.62823">
        <ele>739</ele>
        <time>2012-06-22T13:28:37Z</time>
      </trkpt>
      <trkpt lat="45.76096" lon="4.62817">
        <ele>739</ele>
        <time>2012-06-22T13:28:32Z</time>
      </trkpt>
      <trkpt lat="45.761" lon="4.62816">
        <ele>739</ele>
        <time>2012-06-22T13:27:02Z</time>
      </trkpt>
      <trkpt lat="45.76097" lon="4.62815">
        <ele>740</ele>
        <time>2012-06-22T13:26:47Z</time>
      </trkpt>
      <trkpt lat="45.7608" lon="4.62827">
        <ele>741</ele>
        <time>2012-06-22T13:26:35Z</time>
      </trkpt>
      <trkpt lat="45.76064" lon="4.62827">
        <ele>745</ele>
        <time>2012-06-22T13:26:28Z</time>
      </trkpt>
      <trkpt lat="45.76102" lon="4.62835">
        <ele>731</ele>
        <time>2012-06-22T13:26:25Z</time>
      </trkpt>
      <trkpt lat="45.76055" lon="4.62821">
        <ele>748</ele>
      </trkpt>
      <trkpt lat="45.76068" lon="4.62791">
        <ele>749</ele>
      </trkpt>
      <trkpt lat="45.76066" lon="4.62773">
        <ele>750</ele>
      </trkpt>
      <trkpt lat="45.76064" lon="4.62739">
        <ele>754</ele>
      </trkpt>
      <trkpt lat="45.76064" lon="4.62737">
        <ele>755</ele>
      </trkpt>
      <trkpt lat="45.76078" lon="4.62703">
        <ele>756</ele>
      </trkpt>
      <trkpt lat="45.76105" lon="4.62685">
        <ele>751</ele>
      </trkpt>
      <trkpt lat="45.76107" lon="4.62682">
        <ele>751</ele>
      </trkpt>
      <trkpt lat="45.76132" lon="4.62675">
        <ele>748</ele>
      </trkpt>
      <trkpt lat="45.7613" lon="4.62675">
        <ele>748</ele>
      </trkpt>
      <trkpt lat="45.76066" lon="4.62664">
        <ele>758</ele>
      </trkpt>
      <trkpt lat="45.7606" lon="4.62662">
        <ele>758</ele>
      </trkpt>
      <trkpt lat="45.76046" lon="4.62654">
        <ele>758</ele>
      </trkpt>
      <trkpt lat="45.76024" lon="4.6268">
        <ele>759</ele>
      </trkpt>
      <trkpt lat="45.76003" lon="4.62742">
        <ele>760</ele>
      </trkpt>
      <trkpt lat="45.76003" lon="4.62744">
        <ele>760</ele>
      </trkpt>
      <trkpt lat="45.75998" lon="4.62767">
        <ele>760</ele>
      </trkpt>
      <trkpt lat="45.75978" lon="4.6278">
        <ele>760</ele>
      </trkpt>
      <trkpt lat="45.75945" lon="4.62809">
        <ele>760</ele>
      </trkpt>
      <trkpt lat="45.75944" lon="4.62809">
        <ele>760</ele>
      </trkpt>
      <trkpt lat="45.75888" lon="4.62816">
        <ele>763</ele>
      </trkpt>
      <trkpt lat="45.75834" lon="4.62816">
        <ele>763</ele>
      </trkpt>
      <trkpt lat="45.75784" lon="4.62801">
        <ele>761</ele>
      </trkpt>
      <trkpt lat="45.75748" lon="4.62762">
        <ele>758</ele>
      </trkpt>
      <trkpt lat="45.7572" lon="4.62703">
        <ele>761</ele>
        <time>2012-06-22T13:45:16Z</time>
      </trkpt>
      <trkpt lat="45.75726" lon="4.62669">
        <ele>766</ele>
        <time>2012-06-22T13:45:18Z</time>
      </trkpt>
      <trkpt lat="45.75724" lon="4.6267">
        <ele>765</ele>
        <time>2012-06-22T13:45:19Z</time>
      </trkpt>
      <trkpt lat="45.75724" lon="4.6266">
        <ele>769</ele>
        <time>2012-06-22T13:45:20Z</time>
      </trkpt>
      <trkpt lat="45.75707" lon="4.62647">
        <ele>764</ele>
        <time>2012-06-22T13:45:21Z</time>
      </trkpt>
      <trkpt lat="45.75712" lon="4.62647">
        <ele>766</ele>
        <time>2012-06-22T13:45:22Z</time>
      </trkpt>
      <trkpt lat="45.75715" lon="4.62643">
        <ele>766</ele>
        <time>2012-06-22T13:45:23Z</time>
      </trkpt>
      <trkpt lat="45.75708" lon="4.6263">
        <ele>765</ele>
        <time>2012-06-22T13:45:25Z</time>
      </trkpt>
      <trkpt lat="45.75709" lon="4.62625">
        <ele>765</ele>
        <time>2012-06-22T13:45:26Z</time>
      </trkpt>
      <trkpt lat="45.75709" lon="4.6262">
        <ele>765</ele>
        <time>2012-06-22T13:45:27Z</time>
      </trkpt>
      <trkpt lat="45.75707" lon="4.62594">
        <ele>766</ele>
        <time>2012-06-22T13:45:32Z</time>
      </trkpt>
      <trkpt lat="45.75705" lon="4.62576">
        <ele>768</ele>
        <time>2012-06-22T13:45:36Z</time>
      </trkpt>
      <trkpt lat="45.75706" lon="4.62568">
        <ele>768</ele>
        <time>2012-06-22T13:45:38Z</time>
      </trkpt>
      <trkpt lat="45.75706" lon="4.62559">
        <ele>769</ele>
        <time>2012-06-22T13:45:40Z</time>
      </trkpt>
      <trkpt lat="45.75706" lon="4.62554">
        <ele>769</ele>
        <time>2012-06-22T13:45:41Z</time>
      </trkpt>
      <trkpt lat="45.75708" lon="4.62512">
        <ele>770</ele>
        <time>2012-06-22T13:45:49Z</time>
      </trkpt>
      <trkpt lat="45.75708" lon="4.62433">
        <ele>772</ele>
        <time>2012-06-22T13:46:03Z</time>
      </trkpt>
      <trkpt lat="45.75703" lon="4.62358">
        <ele>771</ele>
        <time>2012-06-22T13:46:16Z</time>
      </trkpt>
      <trkpt lat="45.75711" lon="4.62353">
        <ele>772</ele>
        <time>2012-06-22T13:46:21Z</time>
      </trkpt>
      <trkpt lat="45.75712" lon="4.62353">
        <ele>772</ele>
        <time>2012-06-22T13:46:29Z</time>
      </trkpt>
      <trkpt lat="45.75708" lon="4.62353">
        <ele>772</ele>
        <time>2012-06-22T13:46:38Z</time>
      </trkpt>
      <trkpt lat="45.75698" lon="4.62221">
        <ele>766</ele>
        <time>2012-06-22T13:47:18Z</time>
      </trkpt>
      <trkpt lat="45.75619" lon="4.61802">
        <ele>756</ele>
        <time>2012-06-22T13:48:57Z</time>
      </trkpt>
      <trkpt lat="45.75625" lon="4.61794">
        <ele>756</ele>
        <time>2012-06-22T13:48:58Z</time>
      </trkpt>
      <trkpt lat="45.75608" lon="4.61779">
        <ele>757</ele>
        <time>2012-06-22T13:50:37Z</time>
      </trkpt>
      <trkpt lat="45.75426" lon="4.61627">
        <ele>775</ele>
        <time>2012-06-22T13:52:33Z</time>
      </trkpt>
      <trkpt lat="45.75304" lon="4.61577">
        <ele>781</ele>
      </trkpt>
      <trkpt lat="45.7527" lon="4.61464">
        <ele>781</ele>
      </trkpt>
      <trkpt lat="45.75263" lon="4.61343">
        <ele>774</ele>
      </trkpt>
      <trkpt lat="45.75263" lon="4.6134">
        <ele>774</ele>
      </trkpt>
      <trkpt lat="45.75225" lon="4.61204">
        <ele>759</ele>
      </trkpt>
      <trkpt lat="45.75186" lon="4.61134">
        <ele>756</ele>
      </trkpt>
      <trkpt lat="45.75141" lon="4.6106">
        <ele>754</ele>
      </trkpt>
      <trkpt lat="45.75139" lon="4.6106">
        <ele>754</ele>
      </trkpt>
      <trkpt lat="45.75098" lon="4.61039">
        <ele>753</ele>
      </trkpt>
      <trkpt lat="45.75033" lon="4.61044">
        <ele>753</ele>
      </trkpt>
      <trkpt lat="45.74952" lon="4.6107">
        <ele>750</ele>
      </trkpt>
      <trkpt lat="45.74889" lon="4.61111">
        <ele>742</ele>
      </trkpt>
      <trkpt lat="45.74848" lon="4.61165">
        <ele>738</ele>
      </trkpt>
      <trkpt lat="45.74781" lon="4.6116">
        <ele>736</ele>
      </trkpt>
      <trkpt lat="45.74791" lon="4.61161">
        <ele>736</ele>
        <time>2012-06-22T13:59:31Z</time>
      </trkpt>
      <trkpt lat="45.74795" lon="4.61164">
        <ele>736</ele>
        <time>2012-06-22T13:59:38Z</time>
      </trkpt>
      <trkpt lat="45.74793" lon="4.61162">
        <ele>736</ele>
        <time>2012-06-22T13:59:41Z</time>
      </trkpt>
      <trkpt lat="45.74792" lon="4.61161">
        <ele>736</ele>
        <time>2012-06-22T13:59:44Z</time>
      </trkpt>
      <trkpt lat="45.74791" lon="4.6116">
        <ele>736</ele>
        <time>2012-06-22T13:59:47Z</time>
      </trkpt>
      <trkpt lat="45.74789" lon="4.6115">
        <ele>736</ele>
        <time>2012-06-22T13:59:51Z</time>
      </trkpt>
      <trkpt lat="45.74794" lon="4.61151">
        <ele>736</ele>
        <time>2012-06-22T13:59:55Z</time>
      </trkpt>
      <trkpt lat="45.74798" lon="4.61153">
        <ele>736</ele>
        <time>2012-06-22T14:00:00Z</time>
      </trkpt>
      <trkpt lat="45.74801" lon="4.61156">
        <ele>736</ele>
        <time>2012-06-22T14:00:05Z</time>
      </trkpt>
      <trkpt lat="45.74801" lon="4.61156">
        <ele>736</ele>
        <time>2012-06-22T14:00:12Z</time>
      </trkpt>
      <trkpt lat="45.74796" lon="4.61155">
        <ele>736</ele>
        <time>2012-06-22T14:00:17Z</time>
      </trkpt>
      <trkpt lat="45.74793" lon="4.61154">
        <ele>736</ele>
        <time>2012-06-22T14:00:30Z</time>
      </trkpt>
      <trkpt lat="45.74793" lon="4.61154">
        <ele>736</ele>
        <time>2012-06-22T14:00:35Z</time>
      </trkpt>
      <trkpt lat="45.74793" lon="4.61154">
        <ele>736</ele>
        <time>2012-06-22T14:00:36Z</time>
      </trkpt>
      <trkpt lat="45.74793" lon="4.61155">
        <ele>736</ele>
        <time>2012-06-22T14:01:01Z</time>
      </trkpt>
      <trkpt lat="45.74793" lon="4.61156">
        <ele>736</ele>
        <time>2012-06-22T14:01:27Z</time>
      </trkpt>
      <trkpt lat="45.74787" lon="4.61161">
        <ele>736</ele>
        <time>2012-06-22T14:01:32Z</time>
      </trkpt>
      <trkpt lat="45.74773" lon="4.61179">
        <ele>736</ele>
        <time>2012-06-22T14:01:40Z</time>
      </trkpt>
      <trkpt lat="45.74733" lon="4.61245">
        <ele>741</ele>
        <time>2012-06-22T14:02:03Z</time>
      </trkpt>
      <trkpt lat="45.74721" lon="4.61265">
        <ele>737</ele>
        <time>2012-06-22T14:02:10Z</time>
      </trkpt>
      <trkpt lat="45.74619" lon="4.61335">
        <ele>735</ele>
        <time>2012-06-22T14:03:00Z</time>
      </trkpt>
      <trkpt lat="45.7459" lon="4.61336">
        <ele>742</ele>
        <time>2012-06-22T14:03:13Z</time>
      </trkpt>
      <trkpt lat="45.74508" lon="4.61336">
        <ele>752</ele>
        <time>2012-06-22T14:03:52Z</time>
      </trkpt>
      <trkpt lat="45.74462" lon="4.61346">
        <ele>753</ele>
        <time>2012-06-22T14:04:14Z</time>
      </trkpt>
      <trkpt lat="45.74436" lon="4.61354">
        <ele>754</ele>
        <time>2012-06-22T14:04:27Z</time>
      </trkpt>
      <trkpt lat="45.74416" lon="4.61349">
        <ele>757</ele>
        <time>2012-06-22T14:04:37Z</time>
      </trkpt>
      <trkpt lat="45.74389" lon="4.61325">
        <ele>766</ele>
        <time>2012-06-22T14:04:51Z</time>
      </trkpt>
      <trkpt lat="45.74369" lon="4.61291">
        <ele>768</ele>
        <time>2012-06-22T14:05:03Z</time>
      </trkpt>
      <trkpt lat="45.74355" lon="4.61265">
        <ele>770</ele>
        <time>2012-06-22T14:05:14Z</time>
      </trkpt>
      <trkpt lat="45.74339" lon="4.61254">
        <ele>771</ele>
        <time>2012-06-22T14:05:23Z</time>
      </trkpt>
      <trkpt lat="45.74317" lon="4.61246">
        <ele>774</ele>
        <time>2012-06-22T14:05:34Z</time>
      </trkpt>
      <trkpt lat="45.74287" lon="4.61239">
        <ele>774</ele>
        <time>2012-06-22T14:05:48Z</time>
      </trkpt>
      <trkpt lat="45.74158" lon="4.61242">
        <ele>785</ele>
        <time>2012-06-22T14:06:43Z</time>
      </trkpt>
      <trkpt lat="45.74074" lon="4.613">
        <ele>791</ele>
        <time>2012-06-22T14:07:21Z</time>
      </trkpt>
      <trkpt lat="45.74055" lon="4.61333">
        <ele>790</ele>
        <time>2012-06-22T14:07:28Z</time>
      </trkpt>
      <trkpt lat="45.73977" lon="4.614">
        <ele>779</ele>
        <time>2012-06-22T14:07:38Z</time>
      </trkpt>
      <trkpt lat="45.73932" lon="4.61468">
        <ele>758</ele>
        <time>2012-06-22T14:07:50Z</time>
      </trkpt>
      <trkpt lat="45.73898" lon="4.61508">
        <ele>748</ele>
        <time>2012-06-22T14:07:56Z</time>
      </trkpt>
      <trkpt lat="45.73886" lon="4.61517">
        <ele>748</ele>
        <time>2012-06-22T14:07:58Z</time>
      </trkpt>
      <trkpt lat="45.73874" lon="4.61524">
        <ele>748</ele>
        <time>2012-06-22T14:08:00Z</time>
      </trkpt>
      <trkpt lat="45.73817" lon="4.61544">
        <ele>749</ele>
        <time>2012-06-22T14:08:11Z</time>
      </trkpt>
      <trkpt lat="45.73815" lon="4.61545">
        <ele>749</ele>
        <time>2012-06-22T14:08:16Z</time>
      </trkpt>
      <trkpt lat="45.73801" lon="4.61553">
        <ele>748</ele>
        <time>2012-06-22T14:09:46Z</time>
      </trkpt>
      <trkpt lat="45.73771" lon="4.61549">
        <ele>747</ele>
        <time>2012-06-22T14:09:56Z</time>
      </trkpt>
      <trkpt lat="45.73765" lon="4.6155">
        <ele>747</ele>
        <time>2012-06-22T14:09:58Z</time>
      </trkpt>
      <trkpt lat="45.73749" lon="4.61552">
        <ele>741</ele>
        <time>2012-06-22T14:10:02Z</time>
      </trkpt>
      <trkpt lat="45.73733" lon="4.61555">
        <ele>741</ele>
        <time>2012-06-22T14:10:05Z</time>
      </trkpt>
      <trkpt lat="45.73723" lon="4.61562">
        <ele>740</ele>
        <time>2012-06-22T14:10:07Z</time>
      </trkpt>
      <trkpt lat="45.73708" lon="4.61584">
        <ele>733</ele>
        <time>2012-06-22T14:10:11Z</time>
      </trkpt>
      <trkpt lat="45.73697" lon="4.6161">
        <ele>731</ele>
        <time>2012-06-22T14:10:14Z</time>
      </trkpt>
      <trkpt lat="45.73679" lon="4.61637">
        <ele>730</ele>
        <time>2012-06-22T14:10:18Z</time>
      </trkpt>
      <trkpt lat="45.73669" lon="4.61643">
        <ele>729</ele>
        <time>2012-06-22T14:10:20Z</time>
      </trkpt>
      <trkpt lat="45.73658" lon="4.61643">
        <ele>726</ele>
        <time>2012-06-22T14:10:22Z</time>
      </trkpt>
      <trkpt lat="45.73653" lon="4.6164">
        <ele>726</ele>
        <time>2012-06-22T14:10:23Z</time>
      </trkpt>
      <trkpt lat="45.73623" lon="4.61623">
        <ele>725</ele>
        <time>2012-06-22T14:10:28Z</time>
      </trkpt>
      <trkpt lat="45.73612" lon="4.61614">
        <ele>724</ele>
        <time>2012-06-22T14:10:30Z</time>
      </trkpt>
      <trkpt lat="45.73599" lon="4.61596">
        <ele>723</ele>
        <time>2012-06-22T14:10:33Z</time>
      </trkpt>
      <trkpt lat="45.73582" lon="4.61552">
        <ele>715</ele>
        <time>2012-06-22T14:10:39Z</time>
      </trkpt>
      <trkpt lat="45.73569" lon="4.61479">
        <ele>715</ele>
        <time>2012-06-22T14:10:47Z</time>
      </trkpt>
      <trkpt lat="45.73565" lon="4.61397">
        <ele>716</ele>
        <time>2012-06-22T14:10:58Z</time>
      </trkpt>
      <trkpt lat="45.73563" lon="4.61381">
        <ele>716</ele>
        <time>2012-06-22T14:11:00Z</time>
      </trkpt>
      <trkpt lat="45.73546" lon="4.61326">
        <ele>718</ele>
        <time>2012-06-22T14:11:07Z</time>
      </trkpt>
      <trkpt lat="45.73521" lon="4.61281">
        <ele>716</ele>
        <time>2012-06-22T14:11:13Z</time>
      </trkpt>
      <trkpt lat="45.73516" lon="4.61274">
        <ele>716</ele>
        <time>2012-06-22T14:11:14Z</time>
      </trkpt>
      <trkpt lat="45.73508" lon="4.61257">
        <ele>713</ele>
        <time>2012-06-22T14:11:16Z</time>
      </trkpt>
      <trkpt lat="45.73471" lon="4.61175">
        <ele>708</ele>
        <time>2012-06-22T14:11:25Z</time>
      </trkpt>
      <trkpt lat="45.7347" lon="4.61129">
        <ele>713</ele>
        <time>2012-06-22T14:11:31Z</time>
      </trkpt>
      <trkpt lat="45.7346" lon="4.61084">
        <ele>714</ele>
        <time>2012-06-22T14:11:38Z</time>
      </trkpt>
      <trkpt lat="45.73442" lon="4.61075">
        <ele>719</ele>
        <time>2012-06-22T14:11:43Z</time>
      </trkpt>
      <trkpt lat="45.73438" lon="4.61077">
        <ele>718</ele>
        <time>2012-06-22T14:11:44Z</time>
      </trkpt>
      <trkpt lat="45.73422" lon="4.61084">
        <ele>712</ele>
        <time>2012-06-22T14:11:49Z</time>
      </trkpt>
      <trkpt lat="45.73418" lon="4.61091">
        <ele>712</ele>
        <time>2012-06-22T14:11:53Z</time>
      </trkpt>
      <trkpt lat="45.73414" lon="4.61109">
        <ele>707</ele>
        <time>2012-06-22T14:11:58Z</time>
      </trkpt>
      <trkpt lat="45.73406" lon="4.61132">
        <ele>705</ele>
        <time>2012-06-22T14:12:02Z</time>
      </trkpt>
      <trkpt lat="45.734" lon="4.61144">
        <ele>704</ele>
        <time>2012-06-22T14:12:04Z</time>
      </trkpt>
      <trkpt lat="45.73389" lon="4.61159">
        <ele>703</ele>
        <time>2012-06-22T14:12:06Z</time>
      </trkpt>
      <trkpt lat="45.73357" lon="4.612">
        <ele>697</ele>
        <time>2012-06-22T14:12:13Z</time>
      </trkpt>
      <trkpt lat="45.73339" lon="4.61216">
        <ele>697</ele>
        <time>2012-06-22T14:12:18Z</time>
      </trkpt>
      <trkpt lat="45.7333" lon="4.61225">
        <ele>690</ele>
        <time>2012-06-22T14:12:21Z</time>
      </trkpt>
      <trkpt lat="45.73325" lon="4.61229">
        <ele>690</ele>
        <time>2012-06-22T14:12:23Z</time>
      </trkpt>
      <trkpt lat="45.73319" lon="4.61221">
        <ele>689</ele>
        <time>2012-06-22T14:12:25Z</time>
      </trkpt>
      <trkpt lat="45.73304" lon="4.61192">
        <ele>688</ele>
        <time>2012-06-22T14:12:30Z</time>
      </trkpt>
      <trkpt lat="45.73199" lon="4.60976">
        <ele>704</ele>
        <time>2012-06-22T14:13:12Z</time>
      </trkpt>
      <trkpt lat="45.7317" lon="4.6105">
        <ele>689</ele>
        <time>2012-06-22T14:13:54Z</time>
      </trkpt>
      <trkpt lat="45.73157" lon="4.61104">
        <ele>676</ele>
        <time>2012-06-22T14:15:16Z</time>
      </trkpt>
      <trkpt lat="45.72997" lon="4.61259">
        <ele>660</ele>
        <time>2012-06-22T14:16:02Z</time>
      </trkpt>
      <trkpt lat="45.7299" lon="4.61259">
        <ele>660</ele>
        <time>2012-06-22T14:16:04Z</time>
      </trkpt>
      <trkpt lat="45.7295" lon="4.61243">
        <ele>670</ele>
        <time>2012-06-22T14:16:16Z</time>
      </trkpt>
      <trkpt lat="45.72894" lon="4.61233">
        <ele>668</ele>
        <time>2012-06-22T14:16:35Z</time>
      </trkpt>
      <trkpt lat="45.72906" lon="4.61216">
        <ele>670</ele>
        <time>2012-06-22T14:16:37Z</time>
      </trkpt>
      <trkpt lat="45.72899" lon="4.61215">
        <ele>670</ele>
        <time>2012-06-22T14:16:41Z</time>
      </trkpt>
      <trkpt lat="45.72868" lon="4.61195">
        <ele>671</ele>
        <time>2012-06-22T14:16:52Z</time>
      </trkpt>
      <trkpt lat="45.72722" lon="4.61215">
        <ele>675</ele>
        <time>2012-06-22T14:17:38Z</time>
      </trkpt>
      <trkpt lat="45.72705" lon="4.61222">
        <ele>676</ele>
        <time>2012-06-22T14:17:52Z</time>
      </trkpt>
      <trkpt lat="45.7265" lon="4.61232">
        <ele>679</ele>
        <time>2012-06-22T14:18:02Z</time>
      </trkpt>
      <trkpt lat="45.72608" lon="4.61226">
        <ele>681</ele>
        <time>2012-06-22T14:18:12Z</time>
      </trkpt>
      <trkpt lat="45.72581" lon="4.61231">
        <ele>679</ele>
        <time>2012-06-22T14:18:23Z</time>
      </trkpt>
      <trkpt lat="45.72567" lon="4.6124">
        <ele>679</ele>
        <time>2012-06-22T14:18:35Z</time>
      </trkpt>
      <trkpt lat="45.7256" lon="4.61245">
        <ele>679</ele>
        <time>2012-06-22T14:18:41Z</time>
      </trkpt>
      <trkpt lat="45.72553" lon="4.61259">
        <ele>669</ele>
        <time>2012-06-22T14:18:51Z</time>
      </trkpt>
      <trkpt lat="45.72547" lon="4.61261">
        <ele>669</ele>
        <time>2012-06-22T14:19:01Z</time>
      </trkpt>
      <trkpt lat="45.72539" lon="4.6127">
        <ele>668</ele>
        <time>2012-06-22T14:19:06Z</time>
      </trkpt>
      <trkpt lat="45.72533" lon="4.61275">
        <ele>668</ele>
        <time>2012-06-22T14:19:13Z</time>
      </trkpt>
      <trkpt lat="45.72526" lon="4.6128">
        <ele>668</ele>
        <time>2012-06-22T14:19:35Z</time>
      </trkpt>
      <trkpt lat="45.72504" lon="4.61294">
        <ele>668</ele>
        <time>2012-06-22T14:19:44Z</time>
      </trkpt>
      <trkpt lat="45.7247" lon="4.61304">
        <ele>671</ele>
        <time>2012-06-22T14:19:53Z</time>
      </trkpt>
      <trkpt lat="45.72435" lon="4.61308">
        <ele>671</ele>
        <time>2012-06-22T14:20:03Z</time>
      </trkpt>
      <trkpt lat="45.72433" lon="4.61303">
        <ele>671</ele>
        <time>2012-06-22T14:20:05Z</time>
      </trkpt>
      <trkpt lat="45.72435" lon="4.61298">
        <ele>671</ele>
        <time>2012-06-22T14:20:07Z</time>
      </trkpt>
      <trkpt lat="45.72437" lon="4.61272">
        <ele>672</ele>
        <time>2012-06-22T14:20:15Z</time>
      </trkpt>
      <trkpt lat="45.72432" lon="4.61237">
        <ele>674</ele>
        <time>2012-06-22T14:20:29Z</time>
      </trkpt>
      <trkpt lat="45.7243" lon="4.61228">
        <ele>675</ele>
        <time>2012-06-22T14:20:33Z</time>
      </trkpt>
      <trkpt lat="45.72432" lon="4.61194">
        <ele>674</ele>
        <time>2012-06-22T14:20:40Z</time>
      </trkpt>
      <trkpt lat="45.72446" lon="4.61051">
        <ele>676</ele>
        <time>2012-06-22T14:21:01Z</time>
      </trkpt>
      <trkpt lat="45.72463" lon="4.60863">
        <ele>676</ele>
        <time>2012-06-22T14:21:12Z</time>
      </trkpt>
      <trkpt lat="45.72479" lon="4.60659">
        <ele>713</ele>
        <time>2012-06-22T14:21:35Z</time>
      </trkpt>
      <trkpt lat="45.72449" lon="4.60671">
        <ele>700</ele>
        <time>2012-06-22T14:21:39Z</time>
      </trkpt>
      <trkpt lat="45.72336" lon="4.60705">
        <ele>691</ele>
        <time>2012-06-22T14:21:58Z</time>
      </trkpt>
      <trkpt lat="45.7231" lon="4.60695">
        <ele>686</ele>
        <time>2012-06-22T14:22:02Z</time>
      </trkpt>
      <trkpt lat="45.72298" lon="4.60686">
        <ele>685</ele>
        <time>2012-06-22T14:22:04Z</time>
      </trkpt>
      <trkpt lat="45.72202" lon="4.60611">
        <ele>687</ele>
        <time>2012-06-22T14:22:22Z</time>
      </trkpt>
      <trkpt lat="45.7217" lon="4.60572">
        <ele>688</ele>
        <time>2012-06-22T14:22:29Z</time>
      </trkpt>
      <trkpt lat="45.72162" lon="4.60559">
        <ele>676</ele>
        <time>2012-06-22T14:22:31Z</time>
      </trkpt>
      <trkpt lat="45.72107" lon="4.60432">
        <ele>674</ele>
        <time>2012-06-22T14:22:51Z</time>
      </trkpt>
      <trkpt lat="45.72045" lon="4.60199">
        <ele>668</ele>
        <time>2012-06-22T14:23:27Z</time>
      </trkpt>
      <trkpt lat="45.72013" lon="4.60172">
        <ele>668</ele>
        <time>2012-06-22T14:23:37Z</time>
      </trkpt>
      <trkpt lat="45.71898" lon="4.60193">
        <ele>648</ele>
        <time>2012-06-22T14:23:54Z</time>
      </trkpt>
      <trkpt lat="45.7187" lon="4.60183">
        <ele>646</ele>
        <time>2012-06-22T14:23:59Z</time>
      </trkpt>
      <trkpt lat="45.71845" lon="4.60131">
        <ele>656</ele>
        <time>2012-06-22T14:24:12Z</time>
      </trkpt>
      <trkpt lat="45.7188" lon="4.59888">
        <ele>675</ele>
        <time>2012-06-22T14:24:29Z</time>
      </trkpt>
      <trkpt lat="45.7189" lon="4.59881">
        <ele>677</ele>
        <time>2012-06-22T14:24:31Z</time>
      </trkpt>
      <trkpt lat="45.71908" lon="4.59822">
        <ele>684</ele>
        <time>2012-06-22T14:24:40Z</time>
      </trkpt>
      <trkpt lat="45.71903" lon="4.59671">
        <ele>690</ele>
        <time>2012-06-22T14:25:04Z</time>
      </trkpt>
      <trkpt lat="45.71898" lon="4.59657">
        <ele>696</ele>
        <time>2012-06-22T14:25:07Z</time>
      </trkpt>
      <trkpt lat="45.71878" lon="4.59648">
        <ele>696</ele>
        <time>2012-06-22T14:25:14Z</time>
      </trkpt>
      <trkpt lat="45.71851" lon="4.59653">
        <ele>693</ele>
        <time>2012-06-22T14:25:20Z</time>
      </trkpt>
      <trkpt lat="45.71653" lon="4.59733">
        <ele>699</ele>
        <time>2012-06-22T14:26:05Z</time>
      </trkpt>
      <trkpt lat="45.71603" lon="4.59762">
        <ele>688</ele>
        <time>2012-06-22T14:26:19Z</time>
      </trkpt>
      <trkpt lat="45.71604" lon="4.59767">
        <ele>687</ele>
        <time>2012-06-22T14:27:03Z</time>
      </trkpt>
      <trkpt lat="45.71601" lon="4.59769">
        <ele>687</ele>
        <time>2012-06-22T14:28:51Z</time>
      </trkpt>
      <trkpt lat="45.71553" lon="4.59801">
        <ele>685</ele>
        <time>2012-06-22T14:30:50Z</time>
      </trkpt>
      <trkpt lat="45.71429" lon="4.59631">
        <ele>694</ele>
        <time>2012-06-22T14:31:34Z</time>
      </trkpt>
      <trkpt lat="45.71425" lon="4.59582">
        <ele>689</ele>
        <time>2012-06-22T14:31:42Z</time>
      </trkpt>
      <trkpt lat="45.71427" lon="4.59524">
        <ele>695</ele>
        <time>2012-06-22T14:31:51Z</time>
      </trkpt>
      <trkpt lat="45.71429" lon="4.59358">
        <ele>698</ele>
        <time>2012-06-22T14:32:19Z</time>
      </trkpt>
      <trkpt lat="45.71428" lon="4.59348">
        <ele>696</ele>
        <time>2012-06-22T14:32:21Z</time>
      </trkpt>
      <trkpt lat="45.71428" lon="4.5933">
        <ele>693</ele>
        <time>2012-06-22T14:32:25Z</time>
      </trkpt>
      <trkpt lat="45.7143" lon="4.59288">
        <ele>698</ele>
        <time>2012-06-22T14:32:33Z</time>
      </trkpt>
      <trkpt lat="45.71433" lon="4.59235">
        <ele>696</ele>
        <time>2012-06-22T14:32:42Z</time>
      </trkpt>
      <trkpt lat="45.71431" lon="4.592">
        <ele>699</ele>
        <time>2012-06-22T14:32:49Z</time>
      </trkpt>
      <trkpt lat="45.71408" lon="4.5916">
        <ele>695</ele>
        <time>2012-06-22T14:32:58Z</time>
      </trkpt>
      <trkpt lat="45.71393" lon="4.59148">
        <ele>697</ele>
        <time>2012-06-22T14:33:02Z</time>
      </trkpt>
      <trkpt lat="45.71378" lon="4.59128">
        <ele>700</ele>
        <time>2012-06-22T14:33:08Z</time>
      </trkpt>
      <trkpt lat="45.71354" lon="4.59118">
        <ele>701</ele>
        <time>2012-06-22T14:33:16Z</time>
      </trkpt>
      <trkpt lat="45.7133" lon="4.59121">
        <ele>700</ele>
        <time>2012-06-22T14:33:26Z</time>
      </trkpt>
      <trkpt lat="45.71314" lon="4.59122">
        <ele>700</ele>
        <time>2012-06-22T14:33:34Z</time>
      </trkpt>
      <trkpt lat="45.71289" lon="4.5913">
        <ele>700</ele>
        <time>2012-06-22T14:33:45Z</time>
      </trkpt>
      <trkpt lat="45.71262" lon="4.5914">
        <ele>698</ele>
        <time>2012-06-22T14:33:53Z</time>
      </trkpt>
      <trkpt lat="45.71221" lon="4.59159">
        <ele>705</ele>
        <time>2012-06-22T14:34:03Z</time>
      </trkpt>
      <trkpt lat="45.71142" lon="4.59207">
        <ele>689</ele>
        <time>2012-06-22T14:34:20Z</time>
      </trkpt>
      <trkpt lat="45.71117" lon="4.59228">
        <ele>684</ele>
        <time>2012-06-22T14:34:25Z</time>
      </trkpt>
      <trkpt lat="45.7109" lon="4.5921">
        <ele>686</ele>
        <time>2012-06-22T14:34:30Z</time>
      </trkpt>
      <trkpt lat="45.71076" lon="4.59184">
        <ele>683</ele>
        <time>2012-06-22T14:34:33Z</time>
      </trkpt>
      <trkpt lat="45.71059" lon="4.59159">
        <ele>697</ele>
        <time>2012-06-22T14:34:36Z</time>
      </trkpt>
      <trkpt lat="45.71034" lon="4.59137">
        <ele>697</ele>
        <time>2012-06-22T14:34:39Z</time>
      </trkpt>
      <trkpt lat="45.70963" lon="4.5907">
        <ele>703</ele>
        <time>2012-06-22T14:34:54Z</time>
      </trkpt>
      <trkpt lat="45.7095" lon="4.59051">
        <ele>703</ele>
        <time>2012-06-22T14:35:02Z</time>
      </trkpt>
      <trkpt lat="45.70916" lon="4.59008">
        <ele>701</ele>
        <time>2012-06-22T14:35:18Z</time>
      </trkpt>
      <trkpt lat="45.7089" lon="4.58979">
        <ele>704</ele>
        <time>2012-06-22T14:35:32Z</time>
      </trkpt>
      <trkpt lat="45.70886" lon="4.58975">
        <ele>704</ele>
        <time>2012-06-22T14:35:34Z</time>
      </trkpt>
      <trkpt lat="45.70864" lon="4.58956">
        <ele>704</ele>
        <time>2012-06-22T14:35:45Z</time>
      </trkpt>
      <trkpt lat="45.7084" lon="4.58933">
        <ele>703</ele>
        <time>2012-06-22T14:35:59Z</time>
      </trkpt>
      <trkpt lat="45.70811" lon="4.58888">
        <ele>703</ele>
        <time>2012-06-22T14:36:20Z</time>
      </trkpt>
      <trkpt lat="45.70809" lon="4.58882">
        <ele>703</ele>
        <time>2012-06-22T14:36:22Z</time>
      </trkpt>
      <trkpt lat="45.70809" lon="4.58854">
        <ele>703</ele>
        <time>2012-06-22T14:36:30Z</time>
      </trkpt>
      <trkpt lat="45.70812" lon="4.58808">
        <ele>704</ele>
        <time>2012-06-22T14:36:42Z</time>
      </trkpt>
      <trkpt lat="45.70821" lon="4.58738">
        <ele>705</ele>
        <time>2012-06-22T14:37:00Z</time>
      </trkpt>
      <trkpt lat="45.70828" lon="4.58693">
        <ele>705</ele>
        <time>2012-06-22T14:37:11Z</time>
      </trkpt>
      <trkpt lat="45.7083" lon="4.58662">
        <ele>703</ele>
        <time>2012-06-22T14:37:20Z</time>
      </trkpt>
      <trkpt lat="45.70835" lon="4.58636">
        <ele>709</ele>
        <time>2012-06-22T14:37:27Z</time>
      </trkpt>
      <trkpt lat="45.70836" lon="4.58604">
        <ele>708</ele>
        <time>2012-06-22T14:37:34Z</time>
      </trkpt>
      <trkpt lat="45.70842" lon="4.58577">
        <ele>707</ele>
        <time>2012-06-22T14:37:40Z</time>
      </trkpt>
      <trkpt lat="45.7085" lon="4.5853">
        <ele>709</ele>
        <time>2012-06-22T14:37:51Z</time>
      </trkpt>
      <trkpt lat="45.70862" lon="4.58484">
        <ele>709</ele>
        <time>2012-06-22T14:38:01Z</time>
      </trkpt>
      <trkpt lat="45.70872" lon="4.58447">
        <ele>710</ele>
        <time>2012-06-22T14:38:09Z</time>
      </trkpt>
      <trkpt lat="45.70876" lon="4.58427">
        <ele>711</ele>
        <time>2012-06-22T14:38:13Z</time>
      </trkpt>
      <trkpt lat="45.70888" lon="4.58379">
        <ele>711</ele>
        <time>2012-06-22T14:38:24Z</time>
      </trkpt>
      <trkpt lat="45.70888" lon="4.58374">
        <ele>711</ele>
        <time>2012-06-22T14:38:25Z</time>
      </trkpt>
      <trkpt lat="45.70888" lon="4.58352">
        <ele>711</ele>
        <time>2012-06-22T14:38:30Z</time>
      </trkpt>
      <trkpt lat="45.70894" lon="4.58319">
        <ele>712</ele>
        <time>2012-06-22T14:38:38Z</time>
      </trkpt>
      <trkpt lat="45.70899" lon="4.58289">
        <ele>712</ele>
        <time>2012-06-22T14:38:45Z</time>
      </trkpt>
      <trkpt lat="45.70904" lon="4.58258">
        <ele>713</ele>
        <time>2012-06-22T14:38:55Z</time>
      </trkpt>
      <trkpt lat="45.70904" lon="4.58256">
        <ele>713</ele>
        <time>2012-06-22T14:38:56Z</time>
      </trkpt>
      <trkpt lat="45.70902" lon="4.5825">
        <ele>713</ele>
        <time>2012-06-22T14:39:04Z</time>
      </trkpt>
      <trkpt lat="45.70899" lon="4.5825">
        <ele>713</ele>
        <time>2012-06-22T14:39:13Z</time>
      </trkpt>
      <trkpt lat="45.70899" lon="4.5825">
        <ele>713</ele>
        <time>2012-06-22T14:39:14Z</time>
      </trkpt>
      <trkpt lat="45.70953" lon="4.58241">
        <ele>725</ele>
        <time>2012-06-22T14:53:19Z</time>
      </trkpt>
      <trkpt lat="45.70888" lon="4.58259">
        <ele>712</ele>
        <time>2012-06-22T14:54:02Z</time>
      </trkpt>
      <trkpt lat="45.709" lon="4.58259">
        <ele>713</ele>
        <time>2012-06-22T14:54:29Z</time>
      </trkpt>
      <trkpt lat="45.70902" lon="4.58257">
        <ele>713</ele>
        <time>2012-06-22T14:54:41Z</time>
      </trkpt>
      <trkpt lat="45.70902" lon="4.58263">
        <ele>713</ele>
        <time>2012-06-22T14:57:15Z</time>
      </trkpt>
      <trkpt lat="45.70895" lon="4.58302">
        <ele>712</ele>
        <time>2012-06-22T14:57:25Z</time>
      </trkpt>
      <trkpt lat="45.70894" lon="4.58316">
        <ele>712</ele>
        <time>2012-06-22T14:57:29Z</time>
      </trkpt>
      <trkpt lat="45.70889" lon="4.58333">
        <ele>712</ele>
        <time>2012-06-22T14:57:39Z</time>
      </trkpt>
      <trkpt lat="45.70905" lon="4.583">
        <ele>712</ele>
        <time>2012-06-22T14:57:50Z</time>
      </trkpt>
      <trkpt lat="45.70917" lon="4.5827">
        <ele>722</ele>
        <time>2012-06-22T14:58:00Z</time>
      </trkpt>
      <trkpt lat="45.70932" lon="4.58226">
        <ele>721</ele>
        <time>2012-06-22T14:58:14Z</time>
      </trkpt>
      <trkpt lat="45.70943" lon="4.58192">
        <ele>722</ele>
        <time>2012-06-22T14:58:25Z</time>
      </trkpt>
      <trkpt lat="45.70955" lon="4.58158">
        <ele>720</ele>
        <time>2012-06-22T14:58:35Z</time>
      </trkpt>
      <trkpt lat="45.70973" lon="4.58118">
        <ele>721</ele>
        <time>2012-06-22T14:58:48Z</time>
      </trkpt>
      <trkpt lat="45.70994" lon="4.58072">
        <ele>721</ele>
        <time>2012-06-22T14:59:02Z</time>
      </trkpt>
      <trkpt lat="45.7102" lon="4.58035">
        <ele>726</ele>
        <time>2012-06-22T14:59:15Z</time>
      </trkpt>
      <trkpt lat="45.71049" lon="4.58006">
        <ele>728</ele>
        <time>2012-06-22T14:59:28Z</time>
      </trkpt>
      <trkpt lat="45.71082" lon="4.57979">
        <ele>725</ele>
        <time>2012-06-22T14:59:41Z</time>
      </trkpt>
      <trkpt lat="45.71114" lon="4.57949">
        <ele>732</ele>
        <time>2012-06-22T14:59:54Z</time>
      </trkpt>
      <trkpt lat="45.71132" lon="4.5793">
        <ele>733</ele>
        <time>2012-06-22T15:00:03Z</time>
      </trkpt>
      <trkpt lat="45.71144" lon="4.57918">
        <ele>734</ele>
        <time>2012-06-22T15:00:08Z</time>
      </trkpt>
      <trkpt lat="45.71174" lon="4.57887">
        <ele>739</ele>
        <time>2012-06-22T15:00:20Z</time>
      </trkpt>
      <trkpt lat="45.71207" lon="4.57846">
        <ele>740</ele>
        <time>2012-06-22T15:00:35Z</time>
      </trkpt>
      <trkpt lat="45.71227" lon="4.57819">
        <ele>736</ele>
        <time>2012-06-22T15:00:45Z</time>
      </trkpt>
      <trkpt lat="45.71251" lon="4.5779">
        <ele>744</ele>
        <time>2012-06-22T15:00:56Z</time>
      </trkpt>
      <trkpt lat="45.71283" lon="4.57764">
        <ele>743</ele>
        <time>2012-06-22T15:01:09Z</time>
      </trkpt>
      <trkpt lat="45.71317" lon="4.57743">
        <ele>738</ele>
        <time>2012-06-22T15:01:22Z</time>
      </trkpt>
      <trkpt lat="45.71353" lon="4.57738">
        <ele>740</ele>
        <time>2012-06-22T15:01:35Z</time>
      </trkpt>
      <trkpt lat="45.71389" lon="4.57741">
        <ele>740</ele>
        <time>2012-06-22T15:01:48Z</time>
      </trkpt>
      <trkpt lat="45.71417" lon="4.57754">
        <ele>745</ele>
        <time>2012-06-22T15:01:58Z</time>
      </trkpt>
      <trkpt lat="45.71445" lon="4.57786">
        <ele>752</ele>
        <time>2012-06-22T15:02:10Z</time>
      </trkpt>
      <trkpt lat="45.71449" lon="4.57796">
        <ele>753</ele>
        <time>2012-06-22T15:02:15Z</time>
      </trkpt>
      <trkpt lat="45.71451" lon="4.57801">
        <ele>753</ele>
        <time>2012-06-22T15:02:17Z</time>
      </trkpt>
      <trkpt lat="45.71455" lon="4.57807">
        <ele>754</ele>
        <time>2012-06-22T15:02:20Z</time>
      </trkpt>
      <trkpt lat="45.71463" lon="4.5783">
        <ele>755</ele>
        <time>2012-06-22T15:02:29Z</time>
      </trkpt>
      <trkpt lat="45.71467" lon="4.57843">
        <ele>763</ele>
        <time>2012-06-22T15:02:34Z</time>
      </trkpt>
      <trkpt lat="45.71473" lon="4.57865">
        <ele>764</ele>
        <time>2012-06-22T15:02:43Z</time>
      </trkpt>
      <trkpt lat="45.71482" lon="4.57882">
        <ele>766</ele>
        <time>2012-06-22T15:02:50Z</time>
      </trkpt>
      <trkpt lat="45.71485" lon="4.57891">
        <ele>766</ele>
        <time>2012-06-22T15:02:57Z</time>
      </trkpt>
      <trkpt lat="45.71489" lon="4.57906">
        <ele>767</ele>
        <time>2012-06-22T15:03:06Z</time>
      </trkpt>
      <trkpt lat="45.71496" lon="4.57922">
        <ele>770</ele>
        <time>2012-06-22T15:03:13Z</time>
      </trkpt>
      <trkpt lat="45.715" lon="4.57928">
        <ele>770</ele>
        <time>2012-06-22T15:03:16Z</time>
      </trkpt>
      <trkpt lat="45.71502" lon="4.57936">
        <ele>771</ele>
        <time>2012-06-22T15:03:19Z</time>
      </trkpt>
      <trkpt lat="45.71515" lon="4.57965">
        <ele>775</ele>
        <time>2012-06-22T15:03:30Z</time>
      </trkpt>
      <trkpt lat="45.71526" lon="4.57986">
        <ele>776</ele>
        <time>2012-06-22T15:03:38Z</time>
      </trkpt>
      <trkpt lat="45.7154" lon="4.58011">
        <ele>784</ele>
        <time>2012-06-22T15:03:49Z</time>
      </trkpt>
      <trkpt lat="45.71543" lon="4.58015">
        <ele>784</ele>
        <time>2012-06-22T15:03:51Z</time>
      </trkpt>
      <trkpt lat="45.71554" lon="4.5804">
        <ele>785</ele>
        <time>2012-06-22T15:04:03Z</time>
      </trkpt>
      <trkpt lat="45.71565" lon="4.58059">
        <ele>785</ele>
        <time>2012-06-22T15:04:12Z</time>
      </trkpt>
      <trkpt lat="45.7158" lon="4.58088">
        <ele>787</ele>
        <time>2012-06-22T15:04:25Z</time>
      </trkpt>
      <trkpt lat="45.71591" lon="4.58114">
        <ele>790</ele>
        <time>2012-06-22T15:04:36Z</time>
      </trkpt>
      <trkpt lat="45.71604" lon="4.58143">
        <ele>794</ele>
        <time>2012-06-22T15:04:48Z</time>
      </trkpt>
      <trkpt lat="45.71612" lon="4.58163">
        <ele>795</ele>
        <time>2012-06-22T15:04:56Z</time>
      </trkpt>
      <trkpt lat="45.71629" lon="4.58192">
        <ele>801</ele>
        <time>2012-06-22T15:05:08Z</time>
      </trkpt>
      <trkpt lat="45.71642" lon="4.58224">
        <ele>802</ele>
        <time>2012-06-22T15:05:21Z</time>
      </trkpt>
      <trkpt lat="45.71644" lon="4.58231">
        <ele>802</ele>
        <time>2012-06-22T15:05:24Z</time>
      </trkpt>
      <trkpt lat="45.71656" lon="4.58263">
        <ele>807</ele>
        <time>2012-06-22T15:05:37Z</time>
      </trkpt>
      <trkpt lat="45.71664" lon="4.58289">
        <ele>810</ele>
        <time>2012-06-22T15:05:48Z</time>
      </trkpt>
      <trkpt lat="45.71673" lon="4.58315">
        <ele>807</ele>
        <time>2012-06-22T15:05:58Z</time>
      </trkpt>
      <trkpt lat="45.71687" lon="4.58344">
        <ele>809</ele>
        <time>2012-06-22T15:06:10Z</time>
      </trkpt>
      <trkpt lat="45.71699" lon="4.58368">
        <ele>810</ele>
        <time>2012-06-22T15:06:20Z</time>
      </trkpt>
      <trkpt lat="45.71713" lon="4.58397">
        <ele>811</ele>
        <time>2012-06-22T15:06:31Z</time>
      </trkpt>
      <trkpt lat="45.71722" lon="4.58427">
        <ele>814</ele>
        <time>2012-06-22T15:06:41Z</time>
      </trkpt>
      <trkpt lat="45.71728" lon="4.58458">
        <ele>815</ele>
        <time>2012-06-22T15:06:51Z</time>
      </trkpt>
      <trkpt lat="45.71734" lon="4.58494">
        <ele>815</ele>
        <time>2012-06-22T15:07:03Z</time>
      </trkpt>
      <trkpt lat="45.71742" lon="4.58525">
        <ele>815</ele>
        <time>2012-06-22T15:07:13Z</time>
      </trkpt>
      <trkpt lat="45.71754" lon="4.58562">
        <ele>818</ele>
        <time>2012-06-22T15:07:25Z</time>
      </trkpt>
      <trkpt lat="45.71757" lon="4.58569">
        <ele>818</ele>
        <time>2012-06-22T15:07:31Z</time>
      </trkpt>
      <trkpt lat="45.71756" lon="4.5857">
        <ele>818</ele>
        <time>2012-06-22T15:07:55Z</time>
      </trkpt>
      <trkpt lat="45.71775" lon="4.58577">
        <ele>819</ele>
        <time>2012-06-22T15:08:05Z</time>
      </trkpt>
      <trkpt lat="45.7178" lon="4.58578">
        <ele>819</ele>
        <time>2012-06-22T15:08:11Z</time>
      </trkpt>
      <trkpt lat="45.71782" lon="4.58575">
        <ele>819</ele>
        <time>2012-06-22T15:11:08Z</time>
      </trkpt>
      <trkpt lat="45.71779" lon="4.58574">
        <ele>819</ele>
        <time>2012-06-22T15:11:24Z</time>
      </trkpt>
      <trkpt lat="45.71773" lon="4.58577">
        <ele>819</ele>
        <time>2012-06-22T15:12:44Z</time>
      </trkpt>
      <trkpt lat="45.71779" lon="4.58578">
        <ele>819</ele>
        <time>2012-06-22T15:12:48Z</time>
      </trkpt>
      <trkpt lat="45.718" lon="4.58588">
        <ele>821</ele>
        <time>2012-06-22T15:12:58Z</time>
      </trkpt>
      <trkpt lat="45.71823" lon="4.58607">
        <ele>823</ele>
        <time>2012-06-22T15:13:09Z</time>
      </trkpt>
      <trkpt lat="45.71843" lon="4.58629">
        <ele>829</ele>
        <time>2012-06-22T15:13:21Z</time>
      </trkpt>
      <trkpt lat="45.71865" lon="4.58653">
        <ele>830</ele>
        <time>2012-06-22T15:13:34Z</time>
      </trkpt>
      <trkpt lat="45.71882" lon="4.58674">
        <ele>832</ele>
        <time>2012-06-22T15:13:44Z</time>
      </trkpt>
      <trkpt lat="45.71898" lon="4.58694">
        <ele>833</ele>
        <time>2012-06-22T15:13:54Z</time>
      </trkpt>
      <trkpt lat="45.71922" lon="4.58727">
        <ele>837</ele>
        <time>2012-06-22T15:14:09Z</time>
      </trkpt>
      <trkpt lat="45.71935" lon="4.58747">
        <ele>837</ele>
        <time>2012-06-22T15:14:19Z</time>
      </trkpt>
      <trkpt lat="45.71956" lon="4.5878">
        <ele>840</ele>
        <time>2012-06-22T15:14:32Z</time>
      </trkpt>
      <trkpt lat="45.71972" lon="4.58807">
        <ele>841</ele>
        <time>2012-06-22T15:14:40Z</time>
      </trkpt>
      <trkpt lat="45.72" lon="4.58844">
        <ele>842</ele>
        <time>2012-06-22T15:14:53Z</time>
      </trkpt>
      <trkpt lat="45.72028" lon="4.58882">
        <ele>844</ele>
        <time>2012-06-22T15:15:04Z</time>
      </trkpt>
      <trkpt lat="45.72046" lon="4.58916">
        <ele>844</ele>
        <time>2012-06-22T15:15:13Z</time>
      </trkpt>
      <trkpt lat="45.72067" lon="4.58963">
        <ele>840</ele>
        <time>2012-06-22T15:15:22Z</time>
      </trkpt>
      <trkpt lat="45.72103" lon="4.59028">
        <ele>839</ele>
        <time>2012-06-22T15:15:32Z</time>
      </trkpt>
      <trkpt lat="45.72154" lon="4.59112">
        <ele>833</ele>
        <time>2012-06-22T15:15:45Z</time>
      </trkpt>
      <trkpt lat="45.72191" lon="4.59167">
        <ele>834</ele>
        <time>2012-06-22T15:15:54Z</time>
      </trkpt>
      <trkpt lat="45.72224" lon="4.59215">
        <ele>829</ele>
        <time>2012-06-22T15:16:01Z</time>
      </trkpt>
      <trkpt lat="45.72261" lon="4.59276">
        <ele>829</ele>
        <time>2012-06-22T15:16:08Z</time>
      </trkpt>
      <trkpt lat="45.72278" lon="4.59302">
        <ele>829</ele>
        <time>2012-06-22T15:16:12Z</time>
      </trkpt>
      <trkpt lat="45.72283" lon="4.59323">
        <ele>829</ele>
        <time>2012-06-22T15:16:16Z</time>
      </trkpt>
      <trkpt lat="45.72285" lon="4.59358">
        <ele>830</ele>
        <time>2012-06-22T15:16:24Z</time>
      </trkpt>
      <trkpt lat="45.72293" lon="4.59405">
        <ele>831</ele>
        <time>2012-06-22T15:16:35Z</time>
      </trkpt>
      <trkpt lat="45.72305" lon="4.59459">
        <ele>830</ele>
        <time>2012-06-22T15:16:47Z</time>
      </trkpt>
      <trkpt lat="45.72324" lon="4.59533">
        <ele>828</ele>
        <time>2012-06-22T15:16:57Z</time>
      </trkpt>
      <trkpt lat="45.72343" lon="4.59607">
        <ele>836</ele>
        <time>2012-06-22T15:17:06Z</time>
      </trkpt>
      <trkpt lat="45.72444" lon="4.59866">
        <ele>833</ele>
        <time>2012-06-22T15:17:43Z</time>
      </trkpt>
      <trkpt lat="45.7245" lon="4.59875">
        <ele>833</ele>
        <time>2012-06-22T15:17:46Z</time>
      </trkpt>
      <trkpt lat="45.7246" lon="4.59892">
        <ele>833</ele>
        <time>2012-06-22T15:17:51Z</time>
      </trkpt>
      <trkpt lat="45.7248" lon="4.59931">
        <ele>830</ele>
        <time>2012-06-22T15:18:00Z</time>
      </trkpt>
      <trkpt lat="45.72487" lon="4.59941">
        <ele>830</ele>
        <time>2012-06-22T15:18:05Z</time>
      </trkpt>
      <trkpt lat="45.72493" lon="4.59947">
        <ele>830</ele>
        <time>2012-06-22T15:18:14Z</time>
      </trkpt>
      <trkpt lat="45.72496" lon="4.59947">
        <ele>830</ele>
        <time>2012-06-22T15:18:55Z</time>
      </trkpt>
      <trkpt lat="45.72502" lon="4.59959">
        <ele>836</ele>
        <time>2012-06-22T15:18:58Z</time>
      </trkpt>
      <trkpt lat="45.72512" lon="4.59975">
        <ele>834</ele>
        <time>2012-06-22T15:19:01Z</time>
      </trkpt>
      <trkpt lat="45.72564" lon="4.60039">
        <ele>827</ele>
        <time>2012-06-22T15:19:18Z</time>
      </trkpt>
      <trkpt lat="45.72587" lon="4.60063">
        <ele>827</ele>
        <time>2012-06-22T15:19:23Z</time>
      </trkpt>
      <trkpt lat="45.72591" lon="4.60069">
        <ele>827</ele>
        <time>2012-06-22T15:19:24Z</time>
      </trkpt>
      <trkpt lat="45.72595" lon="4.60074">
        <ele>826</ele>
        <time>2012-06-22T15:19:25Z</time>
      </trkpt>
      <trkpt lat="45.72632" lon="4.60092">
        <ele>821</ele>
        <time>2012-06-22T15:19:33Z</time>
      </trkpt>
      <trkpt lat="45.72673" lon="4.601">
        <ele>824</ele>
        <time>2012-06-22T15:19:43Z</time>
      </trkpt>
      <trkpt lat="45.72715" lon="4.60103">
        <ele>823</ele>
        <time>2012-06-22T15:19:53Z</time>
      </trkpt>
      <trkpt lat="45.72749" lon="4.601">
        <ele>824</ele>
        <time>2012-06-22T15:20:02Z</time>
      </trkpt>
      <trkpt lat="45.72782" lon="4.60095">
        <ele>821</ele>
        <time>2012-06-22T15:20:11Z</time>
      </trkpt>
      <trkpt lat="45.72808" lon="4.60092">
        <ele>821</ele>
        <time>2012-06-22T15:20:18Z</time>
      </trkpt>
      <trkpt lat="45.72844" lon="4.60087">
        <ele>819</ele>
        <time>2012-06-22T15:20:28Z</time>
      </trkpt>
      <trkpt lat="45.72945" lon="4.60052">
        <ele>825</ele>
        <time>2012-06-22T15:20:57Z</time>
      </trkpt>
      <trkpt lat="45.72955" lon="4.6005">
        <ele>824</ele>
        <time>2012-06-22T15:21:22Z</time>
      </trkpt>
      <trkpt lat="45.72992" lon="4.60061">
        <ele>821</ele>
        <time>2012-06-22T15:21:42Z</time>
      </trkpt>
      <trkpt lat="45.73019" lon="4.60077">
        <ele>820</ele>
        <time>2012-06-22T15:21:56Z</time>
      </trkpt>
      <trkpt lat="45.73045" lon="4.60104">
        <ele>813</ele>
        <time>2012-06-22T15:22:10Z</time>
      </trkpt>
      <trkpt lat="45.73068" lon="4.60131">
        <ele>812</ele>
        <time>2012-06-22T15:22:19Z</time>
      </trkpt>
      <trkpt lat="45.73121" lon="4.60191">
        <ele>812</ele>
        <time>2012-06-22T15:22:26Z</time>
      </trkpt>
      <trkpt lat="45.73139" lon="4.60237">
        <ele>810</ele>
        <time>2012-06-22T15:22:38Z</time>
      </trkpt>
      <trkpt lat="45.73187" lon="4.60308">
        <ele>815</ele>
        <time>2012-06-22T15:22:56Z</time>
      </trkpt>
      <trkpt lat="45.73275" lon="4.60422">
        <ele>816</ele>
        <time>2012-06-22T15:23:46Z</time>
      </trkpt>
      <trkpt lat="45.73285" lon="4.6043">
        <ele>817</ele>
        <time>2012-06-22T15:23:59Z</time>
      </trkpt>
      <trkpt lat="45.73299" lon="4.60438">
        <ele>819</ele>
        <time>2012-06-22T15:24:13Z</time>
      </trkpt>
      <trkpt lat="45.73319" lon="4.60448">
        <ele>820</ele>
        <time>2012-06-22T15:24:28Z</time>
      </trkpt>
      <trkpt lat="45.73696" lon="4.60466">
        <ele>821</ele>
        <time>2012-06-22T15:28:01Z</time>
      </trkpt>
      <trkpt lat="45.73704" lon="4.60463">
        <ele>822</ele>
        <time>2012-06-22T15:28:38Z</time>
      </trkpt>
      <trkpt lat="45.73705" lon="4.60463">
        <ele>822</ele>
        <time>2012-06-22T15:28:44Z</time>
      </trkpt>
      <trkpt lat="45.73723" lon="4.60449">
        <ele>822</ele>
        <time>2012-06-22T15:28:54Z</time>
      </trkpt>
      <trkpt lat="45.73736" lon="4.60437">
        <ele>822</ele>
        <time>2012-06-22T15:29:02Z</time>
      </trkpt>
      <trkpt lat="45.73751" lon="4.60429">
        <ele>822</ele>
        <time>2012-06-22T15:29:11Z</time>
      </trkpt>
      <trkpt lat="45.73756" lon="4.60428">
        <ele>822</ele>
        <time>2012-06-22T15:29:14Z</time>
      </trkpt>
      <trkpt lat="45.73759" lon="4.60421">
        <ele>822</ele>
        <time>2012-06-22T15:29:22Z</time>
      </trkpt>
      <trkpt lat="45.73759" lon="4.6041">
        <ele>823</ele>
        <time>2012-06-22T15:29:30Z</time>
      </trkpt>
      <trkpt lat="45.73766" lon="4.60394">
        <ele>825</ele>
        <time>2012-06-22T15:29:38Z</time>
      </trkpt>
      <trkpt lat="45.73785" lon="4.60347">
        <ele>827</ele>
        <time>2012-06-22T15:30:15Z</time>
      </trkpt>
      <trkpt lat="45.73776" lon="4.60364">
        <ele>827</ele>
        <time>2012-06-22T15:32:08Z</time>
      </trkpt>
      <trkpt lat="45.73789" lon="4.60303">
        <ele>829</ele>
        <time>2012-06-22T15:33:16Z</time>
      </trkpt>
      <trkpt lat="45.73789" lon="4.60254">
        <ele>829</ele>
        <time>2012-06-22T15:33:29Z</time>
      </trkpt>
      <trkpt lat="45.73792" lon="4.60238">
        <ele>827</ele>
        <time>2012-06-22T15:33:33Z</time>
      </trkpt>
      <trkpt lat="45.73804" lon="4.60235">
        <ele>827</ele>
        <time>2012-06-22T15:33:39Z</time>
      </trkpt>
      <trkpt lat="45.73806" lon="4.60233">
        <ele>827</ele>
        <time>2012-06-22T15:33:40Z</time>
      </trkpt>
      <trkpt lat="45.73814" lon="4.60228">
        <ele>827</ele>
        <time>2012-06-22T15:33:43Z</time>
      </trkpt>
      <trkpt lat="45.73828" lon="4.6024">
        <ele>827</ele>
        <time>2012-06-22T15:33:49Z</time>
      </trkpt>
      <trkpt lat="45.73855" lon="4.6026">
        <ele>831</ele>
        <time>2012-06-22T15:34:00Z</time>
      </trkpt>
      <trkpt lat="45.73913" lon="4.60291">
        <ele>834</ele>
        <time>2012-06-22T15:34:22Z</time>
      </trkpt>
      <trkpt lat="45.73964" lon="4.60321">
        <ele>839</ele>
        <time>2012-06-22T15:34:39Z</time>
      </trkpt>
      <trkpt lat="45.74008" lon="4.60346">
        <ele>839</ele>
        <time>2012-06-22T15:34:53Z</time>
      </trkpt>
      <trkpt lat="45.7403" lon="4.60367">
        <ele>837</ele>
        <time>2012-06-22T15:35:03Z</time>
      </trkpt>
      <trkpt lat="45.74029" lon="4.60383">
        <ele>837</ele>
        <time>2012-06-22T15:35:12Z</time>
      </trkpt>
      <trkpt lat="45.74035" lon="4.60406">
        <ele>837</ele>
        <time>2012-06-22T15:35:17Z</time>
      </trkpt>
      <trkpt lat="45.74037" lon="4.60418">
        <ele>837</ele>
        <time>2012-06-22T15:35:19Z</time>
      </trkpt>
      <trkpt lat="45.74034" lon="4.60452">
        <ele>838</ele>
        <time>2012-06-22T15:35:25Z</time>
      </trkpt>
      <trkpt lat="45.74161" lon="4.60735">
        <ele>842</ele>
        <time>2012-06-22T15:36:27Z</time>
      </trkpt>
      <trkpt lat="45.74206" lon="4.608">
        <ele>830</ele>
        <time>2012-06-22T15:37:04Z</time>
      </trkpt>
      <trkpt lat="45.74228" lon="4.60809">
        <ele>827</ele>
        <time>2012-06-22T15:37:11Z</time>
      </trkpt>
      <trkpt lat="45.74267" lon="4.6075">
        <ele>809</ele>
        <time>2012-06-22T15:37:17Z</time>
      </trkpt>
      <trkpt lat="45.74265" lon="4.60762">
        <ele>809</ele>
        <time>2012-06-22T15:37:23Z</time>
      </trkpt>
      <trkpt lat="45.74261" lon="4.60781">
        <ele>809</ele>
        <time>2012-06-22T15:37:31Z</time>
      </trkpt>
      <trkpt lat="45.74268" lon="4.60809">
        <ele>811</ele>
        <time>2012-06-22T15:37:41Z</time>
      </trkpt>
      <trkpt lat="45.74271" lon="4.60846">
        <ele>814</ele>
        <time>2012-06-22T15:37:55Z</time>
      </trkpt>
      <trkpt lat="45.74272" lon="4.60849">
        <ele>814</ele>
        <time>2012-06-22T15:37:56Z</time>
      </trkpt>
      <trkpt lat="45.74272" lon="4.6086">
        <ele>814</ele>
        <time>2012-06-22T15:38:00Z</time>
      </trkpt>
      <trkpt lat="45.74274" lon="4.60912">
        <ele>814</ele>
        <time>2012-06-22T15:38:17Z</time>
      </trkpt>
      <trkpt lat="45.74277" lon="4.60941">
        <ele>809</ele>
        <time>2012-06-22T15:38:25Z</time>
      </trkpt>
      <trkpt lat="45.74282" lon="4.60971">
        <ele>807</ele>
        <time>2012-06-22T15:38:33Z</time>
      </trkpt>
      <trkpt lat="45.74296" lon="4.61118">
        <ele>789</ele>
        <time>2012-06-22T15:39:15Z</time>
      </trkpt>
      <trkpt lat="45.74288" lon="4.61141">
        <ele>788</ele>
        <time>2012-06-22T15:39:22Z</time>
      </trkpt>
      <trkpt lat="45.74283" lon="4.61142">
        <ele>788</ele>
        <time>2012-06-22T15:39:26Z</time>
      </trkpt>
      <trkpt lat="45.74207" lon="4.61118">
        <ele>797</ele>
        <time>2012-06-22T15:41:00Z</time>
      </trkpt>
      <trkpt lat="45.74394" lon="4.61117">
        <ele>790</ele>
        <time>2012-06-22T15:41:16Z</time>
      </trkpt>
      <trkpt lat="45.74426" lon="4.61141">
        <ele>788</ele>
        <time>2012-06-22T15:41:26Z</time>
      </trkpt>
      <trkpt lat="45.74757" lon="4.61119">
        <ele>734</ele>
        <time>2012-06-22T15:42:37Z</time>
      </trkpt>
      <trkpt lat="45.74806" lon="4.61162">
        <ele>736</ele>
        <time>2012-06-22T15:42:43Z</time>
      </trkpt>
      <trkpt lat="45.74791" lon="4.61166">
        <ele>736</ele>
        <time>2012-06-22T15:42:48Z</time>
      </trkpt>
      <trkpt lat="45.74777" lon="4.6117">
        <ele>736</ele>
        <time>2012-06-22T15:44:51Z</time>
      </trkpt>
      <trkpt lat="45.74774" lon="4.61169">
        <ele>736</ele>
        <time>2012-06-22T15:45:00Z</time>
      </trkpt>
      <trkpt lat="45.74773" lon="4.61171">
        <ele>736</ele>
        <time>2012-06-22T15:46:05Z</time>
      </trkpt>
      <trkpt lat="45.74781" lon="4.61171">
        <ele>736</ele>
        <time>2012-06-22T15:46:09Z</time>
      </trkpt>
      <trkpt lat="45.74788" lon="4.61158">
        <ele>736</ele>
        <time>2012-06-22T15:46:14Z</time>
      </trkpt>
      <trkpt lat="45.74803" lon="4.61131">
        <ele>735</ele>
        <time>2012-06-22T15:46:23Z</time>
      </trkpt>
      <trkpt lat="45.74822" lon="4.61079">
        <ele>732</ele>
        <time>2012-06-22T15:46:36Z</time>
      </trkpt>
      <trkpt lat="45.74851" lon="4.61046">
        <ele>736</ele>
        <time>2012-06-22T15:46:47Z</time>
      </trkpt>
      <trkpt lat="45.74884" lon="4.61017">
        <ele>737</ele>
        <time>2012-06-22T15:46:58Z</time>
      </trkpt>
      <trkpt lat="45.74917" lon="4.60987">
        <ele>741</ele>
        <time>2012-06-22T15:47:09Z</time>
      </trkpt>
      <trkpt lat="45.75005" lon="4.60953">
        <ele>744</ele>
        <time>2012-06-22T15:47:33Z</time>
      </trkpt>
      <trkpt lat="45.75051" lon="4.60959">
        <ele>744</ele>
        <time>2012-06-22T15:47:40Z</time>
      </trkpt>
      <trkpt lat="45.75067" lon="4.60962">
        <ele>744</ele>
        <time>2012-06-22T15:47:42Z</time>
      </trkpt>
      <trkpt lat="45.75131" lon="4.60973">
        <ele>743</ele>
        <time>2012-06-22T15:47:50Z</time>
      </trkpt>
      <trkpt lat="45.75138" lon="4.60974">
        <ele>743</ele>
        <time>2012-06-22T15:47:51Z</time>
      </trkpt>
      <trkpt lat="45.75159" lon="4.60984">
        <ele>745</ele>
        <time>2012-06-22T15:47:54Z</time>
      </trkpt>
      <trkpt lat="45.75172" lon="4.60991">
        <ele>744</ele>
        <time>2012-06-22T15:47:56Z</time>
      </trkpt>
      <trkpt lat="45.7519" lon="4.61007">
        <ele>748</ele>
        <time>2012-06-22T15:47:59Z</time>
      </trkpt>
      <trkpt lat="45.75229" lon="4.61072">
        <ele>750</ele>
        <time>2012-06-22T15:48:08Z</time>
      </trkpt>
      <trkpt lat="45.75242" lon="4.61095">
        <ele>753</ele>
        <time>2012-06-22T15:48:11Z</time>
      </trkpt>
      <trkpt lat="45.753" lon="4.61185">
        <ele>757</ele>
        <time>2012-06-22T15:48:24Z</time>
      </trkpt>
      <trkpt lat="45.75384" lon="4.61285">
        <ele>759</ele>
        <time>2012-06-22T15:48:41Z</time>
      </trkpt>
      <trkpt lat="45.7546" lon="4.61355">
        <ele>761</ele>
        <time>2012-06-22T15:48:55Z</time>
      </trkpt>
      <trkpt lat="45.75532" lon="4.61397">
        <ele>757</ele>
        <time>2012-06-22T15:49:06Z</time>
      </trkpt>
      <trkpt lat="45.75571" lon="4.61445">
        <ele>759</ele>
        <time>2012-06-22T15:49:13Z</time>
      </trkpt>
      <trkpt lat="45.75597" lon="4.61503">
        <ele>755</ele>
        <time>2012-06-22T15:49:20Z</time>
      </trkpt>
      <trkpt lat="45.75615" lon="4.61588">
        <ele>758</ele>
        <time>2012-06-22T15:49:30Z</time>
      </trkpt>
      <trkpt lat="45.75615" lon="4.61666">
        <ele>759</ele>
        <time>2012-06-22T15:49:39Z</time>
      </trkpt>
      <trkpt lat="45.75614" lon="4.61675">
        <ele>760</ele>
        <time>2012-06-22T15:49:40Z</time>
      </trkpt>
      <trkpt lat="45.75621" lon="4.61717">
        <ele>758</ele>
        <time>2012-06-22T15:49:47Z</time>
      </trkpt>
      <trkpt lat="45.75636" lon="4.61715">
        <ele>757</ele>
        <time>2012-06-22T15:49:51Z</time>
      </trkpt>
      <trkpt lat="45.75636" lon="4.61702">
        <ele>757</ele>
        <time>2012-06-22T15:49:54Z</time>
      </trkpt>
      <trkpt lat="45.75637" lon="4.61681">
        <ele>757</ele>
        <time>2012-06-22T15:50:01Z</time>
      </trkpt>
      <trkpt lat="45.75631" lon="4.61685">
        <ele>757</ele>
        <time>2012-06-22T15:50:06Z</time>
      </trkpt>
      <trkpt lat="45.75622" lon="4.61691">
        <ele>758</ele>
        <time>2012-06-22T15:50:14Z</time>
      </trkpt>
      <trkpt lat="45.75624" lon="4.61692">
        <ele>758</ele>
        <time>2012-06-22T15:50:19Z</time>
      </trkpt>
      <trkpt lat="45.75627" lon="4.6169">
        <ele>758</ele>
        <time>2012-06-22T15:50:20Z</time>
      </trkpt>
      <trkpt lat="45.75641" lon="4.61678">
        <ele>756</ele>
        <time>2012-06-22T15:50:26Z</time>
      </trkpt>
      <trkpt lat="45.75642" lon="4.61684">
        <ele>756</ele>
        <time>2012-06-22T15:50:32Z</time>
      </trkpt>
      <trkpt lat="45.75643" lon="4.61701">
        <ele>756</ele>
        <time>2012-06-22T15:50:40Z</time>
      </trkpt>
      <trkpt lat="45.75643" lon="4.61707">
        <ele>756</ele>
        <time>2012-06-22T15:50:43Z</time>
      </trkpt>
      <trkpt lat="45.75627" lon="4.6174">
        <ele>757</ele>
        <time>2012-06-22T15:50:57Z</time>
      </trkpt>
      <trkpt lat="45.75633" lon="4.61793">
        <ele>756</ele>
        <time>2012-06-22T15:51:08Z</time>
      </trkpt>
      <trkpt lat="45.75645" lon="4.61819">
        <ele>756</ele>
        <time>2012-06-22T15:51:16Z</time>
      </trkpt>
      <trkpt lat="45.75708" lon="4.61949">
        <ele>760</ele>
        <time>2012-06-22T15:51:46Z</time>
      </trkpt>
      <trkpt lat="45.7574" lon="4.62014">
        <ele>759</ele>
        <time>2012-06-22T15:51:58Z</time>
      </trkpt>
      <trkpt lat="45.75756" lon="4.62043">
        <ele>751</ele>
        <time>2012-06-22T15:52:04Z</time>
      </trkpt>
      <trkpt lat="45.75779" lon="4.6209">
        <ele>756</ele>
        <time>2012-06-22T15:52:12Z</time>
      </trkpt>
      <trkpt lat="45.75819" lon="4.62154">
        <ele>756</ele>
        <time>2012-06-22T15:52:24Z</time>
      </trkpt>
      <trkpt lat="45.75868" lon="4.62207">
        <ele>760</ele>
        <time>2012-06-22T15:52:36Z</time>
      </trkpt>
      <trkpt lat="45.7593" lon="4.62261">
        <ele>759</ele>
        <time>2012-06-22T15:52:50Z</time>
      </trkpt>
      <trkpt lat="45.75967" lon="4.62294">
        <ele>756</ele>
        <time>2012-06-22T15:52:58Z</time>
      </trkpt>
      <trkpt lat="45.7599" lon="4.6233">
        <ele>753</ele>
        <time>2012-06-22T15:53:02Z</time>
      </trkpt>
      <trkpt lat="45.7604" lon="4.62424">
        <ele>751</ele>
        <time>2012-06-22T15:53:12Z</time>
      </trkpt>
      <trkpt lat="45.76162" lon="4.62589">
        <ele>741</ele>
        <time>2012-06-22T15:53:31Z</time>
      </trkpt>
      <trkpt lat="45.7619" lon="4.62622">
        <ele>736</ele>
        <time>2012-06-22T15:53:35Z</time>
      </trkpt>
      <trkpt lat="45.76213" lon="4.62644">
        <ele>736</ele>
        <time>2012-06-22T15:53:38Z</time>
      </trkpt>
      <trkpt lat="45.76234" lon="4.62654">
        <ele>735</ele>
        <time>2012-06-22T15:53:40Z</time>
      </trkpt>
      <trkpt lat="45.76273" lon="4.62657">
        <ele>726</ele>
        <time>2012-06-22T15:53:44Z</time>
      </trkpt>
      <trkpt lat="45.76293" lon="4.62703">
        <ele>727</ele>
        <time>2012-06-22T15:53:48Z</time>
      </trkpt>
      <trkpt lat="45.7629" lon="4.62769">
        <ele>727</ele>
        <time>2012-06-22T15:53:52Z</time>
      </trkpt>
      <trkpt lat="45.76283" lon="4.62819">
        <ele>727</ele>
        <time>2012-06-22T15:53:55Z</time>
      </trkpt>
      <trkpt lat="45.7627" lon="4.62888">
        <ele>723</ele>
        <time>2012-06-22T15:54:00Z</time>
      </trkpt>
      <trkpt lat="45.7627" lon="4.62892">
        <ele>723</ele>
        <time>2012-06-22T15:54:05Z</time>
      </trkpt>
      <trkpt lat="45.76272" lon="4.62892">
        <ele>723</ele>
        <time>2012-06-22T15:54:11Z</time>
      </trkpt>
      <trkpt lat="45.76282" lon="4.62907">
        <ele>723</ele>
        <time>2012-06-22T15:56:43Z</time>
      </trkpt>
      <trkpt lat="45.76314" lon="4.62946">
        <ele>723</ele>
        <time>2012-06-22T15:57:03Z</time>
      </trkpt>
      <trkpt lat="45.76409" lon="4.63033">
        <ele>731</ele>
        <time>2012-06-22T15:57:48Z</time>
      </trkpt>
      <trkpt lat="45.76689" lon="4.63105">
        <ele>730</ele>
        <time>2012-06-22T15:58:49Z</time>
      </trkpt>
      <trkpt lat="45.7703" lon="4.63743">
        <ele>703</ele>
        <time>2012-06-22T16:00:27Z</time>
      </trkpt>
      <trkpt lat="45.77638" lon="4.63828">
        <ele>600</ele>
        <time>2012-06-22T16:03:19Z</time>
      </trkpt>
      <trkpt lat="45.77641" lon="4.63827">
        <ele>600</ele>
        <time>2012-06-22T16:03:23Z</time>
      </trkpt>
      <trkpt lat="45.77674" lon="4.63866">
        <ele>602</ele>
        <time>2012-06-22T16:03:47Z</time>
      </trkpt>
      <trkpt lat="45.77707" lon="4.63891">
        <ele>602</ele>
        <time>2012-06-22T16:04:04Z</time>
      </trkpt>
      <trkpt lat="45.77737" lon="4.63912">
        <ele>603</ele>
        <time>2012-06-22T16:04:18Z</time>
      </trkpt>
      <trkpt lat="45.77776" lon="4.63935">
        <ele>602</ele>
        <time>2012-06-22T16:04:30Z</time>
      </trkpt>
      <trkpt lat="45.77817" lon="4.63968">
        <ele>602</ele>
        <time>2012-06-22T16:04:41Z</time>
      </trkpt>
      <trkpt lat="45.77821" lon="4.63984">
        <ele>603</ele>
        <time>2012-06-22T16:04:47Z</time>
      </trkpt>
      <trkpt lat="45.77826" lon="4.64003">
        <ele>603</ele>
        <time>2012-06-22T16:04:55Z</time>
      </trkpt>
      <trkpt lat="45.77833" lon="4.64023">
        <ele>602</ele>
        <time>2012-06-22T16:05:03Z</time>
      </trkpt>
      <trkpt lat="45.77843" lon="4.64051">
        <ele>610</ele>
        <time>2012-06-22T16:05:12Z</time>
      </trkpt>
      <trkpt lat="45.77854" lon="4.64095">
        <ele>612</ele>
        <time>2012-06-22T16:05:24Z</time>
      </trkpt>
      <trkpt lat="45.77862" lon="4.64123">
        <ele>614</ele>
        <time>2012-06-22T16:05:31Z</time>
      </trkpt>
      <trkpt lat="45.77877" lon="4.64157">
        <ele>617</ele>
        <time>2012-06-22T16:05:44Z</time>
      </trkpt>
      <trkpt lat="45.77885" lon="4.64176">
        <ele>618</ele>
        <time>2012-06-22T16:05:51Z</time>
      </trkpt>
      <trkpt lat="45.77902" lon="4.64209">
        <ele>619</ele>
        <time>2012-06-22T16:06:05Z</time>
      </trkpt>
      <trkpt lat="45.77906" lon="4.64217">
        <ele>620</ele>
        <time>2012-06-22T16:06:09Z</time>
      </trkpt>
      <trkpt lat="45.77922" lon="4.64253">
        <ele>629</ele>
        <time>2012-06-22T16:06:25Z</time>
      </trkpt>
      <trkpt lat="45.77932" lon="4.64278">
        <ele>633</ele>
        <time>2012-06-22T16:06:36Z</time>
      </trkpt>
      <trkpt lat="45.77939" lon="4.64292">
        <ele>634</ele>
        <time>2012-06-22T16:06:42Z</time>
      </trkpt>
      <trkpt lat="45.7794" lon="4.64294">
        <ele>634</ele>
        <time>2012-06-22T16:06:43Z</time>
      </trkpt>
      <trkpt lat="45.77946" lon="4.64308">
        <ele>634</ele>
        <time>2012-06-22T16:06:52Z</time>
      </trkpt>
      <trkpt lat="45.77954" lon="4.64324">
        <ele>635</ele>
        <time>2012-06-22T16:07:01Z</time>
      </trkpt>
      <trkpt lat="45.77963" lon="4.64348">
        <ele>636</ele>
        <time>2012-06-22T16:07:13Z</time>
      </trkpt>
      <trkpt lat="45.77975" lon="4.64377">
        <ele>636</ele>
        <time>2012-06-22T16:07:25Z</time>
      </trkpt>
      <trkpt lat="45.77982" lon="4.64392">
        <ele>637</ele>
        <time>2012-06-22T16:07:32Z</time>
      </trkpt>
      <trkpt lat="45.77994" lon="4.6441">
        <ele>639</ele>
        <time>2012-06-22T16:07:43Z</time>
      </trkpt>
      <trkpt lat="45.78004" lon="4.64423">
        <ele>641</ele>
        <time>2012-06-22T16:07:51Z</time>
      </trkpt>
      <trkpt lat="45.78013" lon="4.6444">
        <ele>643</ele>
        <time>2012-06-22T16:08:00Z</time>
      </trkpt>
      <trkpt lat="45.7802" lon="4.64452">
        <ele>643</ele>
        <time>2012-06-22T16:08:09Z</time>
      </trkpt>
      <trkpt lat="45.78022" lon="4.64453">
        <ele>643</ele>
        <time>2012-06-22T16:08:18Z</time>
      </trkpt>
      <trkpt lat="45.78033" lon="4.64459">
        <ele>643</ele>
        <time>2012-06-22T16:10:52Z</time>
      </trkpt>
      <trkpt lat="45.78038" lon="4.64465">
        <ele>643</ele>
        <time>2012-06-22T16:10:55Z</time>
      </trkpt>
      <trkpt lat="45.78121" lon="4.64495">
        <ele>643</ele>
        <time>2012-06-22T16:11:08Z</time>
      </trkpt>
      <trkpt lat="45.78212" lon="4.64542">
        <ele>631</ele>
        <time>2012-06-22T16:11:25Z</time>
      </trkpt>
      <trkpt lat="45.78239" lon="4.64565">
        <ele>629</ele>
        <time>2012-06-22T16:11:31Z</time>
      </trkpt>
      <trkpt lat="45.78252" lon="4.64597">
        <ele>625</ele>
        <time>2012-06-22T16:11:40Z</time>
      </trkpt>
      <trkpt lat="45.78343" lon="4.64705">
        <ele>618</ele>
        <time>2012-06-22T16:12:04Z</time>
      </trkpt>
      <trkpt lat="45.78394" lon="4.64781">
        <ele>614</ele>
        <time>2012-06-22T16:12:17Z</time>
      </trkpt>
      <trkpt lat="45.78418" lon="4.64901">
        <ele>611</ele>
        <time>2012-06-22T16:12:34Z</time>
      </trkpt>
      <trkpt lat="45.78421" lon="4.64929">
        <ele>604</ele>
        <time>2012-06-22T16:12:38Z</time>
      </trkpt>
      <trkpt lat="45.78423" lon="4.6494">
        <ele>602</ele>
        <time>2012-06-22T16:12:40Z</time>
      </trkpt>
      <trkpt lat="45.78458" lon="4.65031">
        <ele>583</ele>
        <time>2012-06-22T16:12:58Z</time>
      </trkpt>
      <trkpt lat="45.78464" lon="4.6504">
        <ele>582</ele>
        <time>2012-06-22T16:13:00Z</time>
      </trkpt>
      <trkpt lat="45.78542" lon="4.65042">
        <ele>570</ele>
        <time>2012-06-22T16:13:18Z</time>
      </trkpt>
      <trkpt lat="45.78567" lon="4.65044">
        <ele>569</ele>
        <time>2012-06-22T16:13:24Z</time>
      </trkpt>
      <trkpt lat="45.78585" lon="4.65046">
        <ele>568</ele>
        <time>2012-06-22T16:13:27Z</time>
      </trkpt>
      <trkpt lat="45.78605" lon="4.65053">
        <ele>567</ele>
        <time>2012-06-22T16:13:31Z</time>
      </trkpt>
      <trkpt lat="45.78768" lon="4.65107">
        <ele>552</ele>
        <time>2012-06-22T16:14:05Z</time>
      </trkpt>
      <trkpt lat="45.78791" lon="4.65117">
        <ele>551</ele>
        <time>2012-06-22T16:14:10Z</time>
      </trkpt>
      <trkpt lat="45.78808" lon="4.65128">
        <ele>550</ele>
        <time>2012-06-22T16:14:14Z</time>
      </trkpt>
      <trkpt lat="45.78853" lon="4.65166">
        <ele>548</ele>
        <time>2012-06-22T16:14:26Z</time>
      </trkpt>
      <trkpt lat="45.78921" lon="4.65215">
        <ele>535</ele>
        <time>2012-06-22T16:14:40Z</time>
      </trkpt>
      <trkpt lat="45.78954" lon="4.65245">
        <ele>533</ele>
        <time>2012-06-22T16:14:47Z</time>
      </trkpt>
      <trkpt lat="45.78982" lon="4.65309">
        <ele>527</ele>
        <time>2012-06-22T16:14:56Z</time>
      </trkpt>
      <trkpt lat="45.78991" lon="4.65331">
        <ele>527</ele>
        <time>2012-06-22T16:14:59Z</time>
      </trkpt>
      <trkpt lat="45.79007" lon="4.6537">
        <ele>526</ele>
        <time>2012-06-22T16:15:04Z</time>
      </trkpt>
      <trkpt lat="45.79029" lon="4.65443">
        <ele>525</ele>
        <time>2012-06-22T16:15:13Z</time>
      </trkpt>
      <trkpt lat="45.79039" lon="4.65506">
        <ele>520</ele>
        <time>2012-06-22T16:15:22Z</time>
      </trkpt>
      <trkpt lat="45.79056" lon="4.65598">
        <ele>512</ele>
        <time>2012-06-22T16:15:37Z</time>
      </trkpt>
      <trkpt lat="45.79069" lon="4.65638">
        <ele>510</ele>
        <time>2012-06-22T16:15:42Z</time>
      </trkpt>
      <trkpt lat="45.79129" lon="4.65735">
        <ele>505</ele>
        <time>2012-06-22T16:15:55Z</time>
      </trkpt>
      <trkpt lat="45.79129" lon="4.65738">
        <ele>505</ele>
        <time>2012-06-22T16:15:58Z</time>
      </trkpt>
      <trkpt lat="45.79102" lon="4.65728">
        <ele>505</ele>
        <time>2012-06-22T16:18:07Z</time>
      </trkpt>
      <trkpt lat="45.79111" lon="4.65728">
        <ele>505</ele>
        <time>2012-06-22T16:18:21Z</time>
      </trkpt>
      <trkpt lat="45.79273" lon="4.65764">
        <ele>494</ele>
      </trkpt>
      <trkpt lat="45.79389" lon="4.65764">
        <ele>479</ele>
      </trkpt>
      <trkpt lat="45.79472" lon="4.65767">
        <ele>463</ele>
      </trkpt>
      <trkpt lat="45.79478" lon="4.65775">
        <ele>464</ele>
      </trkpt>
      <trkpt lat="45.79604" lon="4.65833">
        <ele>446</ele>
      </trkpt>
      <trkpt lat="45.79782" lon="4.65753">
        <ele>439</ele>
        <time>2012-06-22T16:21:19Z</time>
      </trkpt>
      <trkpt lat="45.79823" lon="4.65762">
        <ele>440</ele>
        <time>2012-06-22T16:21:21Z</time>
      </trkpt>
      <trkpt lat="45.79899" lon="4.65754">
        <ele>440</ele>
        <time>2012-06-22T16:21:35Z</time>
      </trkpt>
      <trkpt lat="45.79963" lon="4.65749">
        <ele>439</ele>
        <time>2012-06-22T16:21:47Z</time>
      </trkpt>
      <trkpt lat="45.79983" lon="4.65752">
        <ele>439</ele>
        <time>2012-06-22T16:21:52Z</time>
      </trkpt>
      <trkpt lat="45.79988" lon="4.65751">
        <ele>439</ele>
        <time>2012-06-22T16:21:54Z</time>
      </trkpt>
      <trkpt lat="45.79988" lon="4.65749">
        <ele>439</ele>
        <time>2012-06-22T16:21:59Z</time>
      </trkpt>
      <trkpt lat="45.79985" lon="4.65735">
        <ele>439</ele>
        <time>2012-06-22T16:22:12Z</time>
      </trkpt>
      <trkpt lat="45.79987" lon="4.65725">
        <ele>439</ele>
        <time>2012-06-22T16:22:14Z</time>
      </trkpt>
      <trkpt lat="45.79999" lon="4.65688">
        <ele>438</ele>
        <time>2012-06-22T16:22:19Z</time>
      </trkpt>
      <trkpt lat="45.80049" lon="4.65543">
        <ele>430</ele>
        <time>2012-06-22T16:22:36Z</time>
      </trkpt>
      <trkpt lat="45.80092" lon="4.65424">
        <ele>430</ele>
        <time>2012-06-22T16:22:56Z</time>
      </trkpt>
      <trkpt lat="45.80111" lon="4.65393">
        <ele>432</ele>
        <time>2012-06-22T16:23:04Z</time>
      </trkpt>
      <trkpt lat="45.80116" lon="4.65383">
        <ele>432</ele>
        <time>2012-06-22T16:23:06Z</time>
      </trkpt>
      <trkpt lat="45.80147" lon="4.65315">
        <ele>432</ele>
        <time>2012-06-22T16:23:18Z</time>
      </trkpt>
      <trkpt lat="45.80222" lon="4.65171">
        <ele>428</ele>
        <time>2012-06-22T16:23:39Z</time>
      </trkpt>
      <trkpt lat="45.80288" lon="4.65056">
        <ele>423</ele>
        <time>2012-06-22T16:23:54Z</time>
      </trkpt>
      <trkpt lat="45.80323" lon="4.64965">
        <ele>423</ele>
        <time>2012-06-22T16:24:05Z</time>
      </trkpt>
      <trkpt lat="45.80362" lon="4.64865">
        <ele>422</ele>
        <time>2012-06-22T16:24:19Z</time>
      </trkpt>
      <trkpt lat="45.80486" lon="4.64598">
        <ele>410</ele>
        <time>2012-06-22T16:24:58Z</time>
      </trkpt>
      <trkpt lat="45.80525" lon="4.64518">
        <ele>400</ele>
        <time>2012-06-22T16:25:11Z</time>
      </trkpt>
      <trkpt lat="45.80532" lon="4.64497">
        <ele>401</ele>
        <time>2012-06-22T16:25:16Z</time>
      </trkpt>
      <trkpt lat="45.80546" lon="4.64485">
        <ele>400</ele>
        <time>2012-06-22T16:25:20Z</time>
      </trkpt>
      <trkpt lat="45.80565" lon="4.64431">
        <ele>399</ele>
        <time>2012-06-22T16:25:28Z</time>
      </trkpt>
      <trkpt lat="45.80596" lon="4.64357">
        <ele>394</ele>
        <time>2012-06-22T16:25:37Z</time>
      </trkpt>
      <trkpt lat="45.8063" lon="4.64266">
        <ele>395</ele>
        <time>2012-06-22T16:25:47Z</time>
      </trkpt>
      <trkpt lat="45.80638" lon="4.64236">
        <ele>396</ele>
        <time>2012-06-22T16:25:50Z</time>
      </trkpt>
      <trkpt lat="45.80642" lon="4.64182">
        <ele>396</ele>
        <time>2012-06-22T16:25:55Z</time>
      </trkpt>
      <trkpt lat="45.80655" lon="4.64147">
        <ele>395</ele>
        <time>2012-06-22T16:25:59Z</time>
      </trkpt>
      <trkpt lat="45.80676" lon="4.64148">
        <ele>395</ele>
        <time>2012-06-22T16:26:02Z</time>
      </trkpt>
      <trkpt lat="45.80687" lon="4.64163">
        <ele>395</ele>
        <time>2012-06-22T16:26:04Z</time>
      </trkpt>
      <trkpt lat="45.80701" lon="4.64187">
        <ele>393</ele>
        <time>2012-06-22T16:26:07Z</time>
      </trkpt>
      <trkpt lat="45.80782" lon="4.64288">
        <ele>384</ele>
        <time>2012-06-22T16:26:26Z</time>
      </trkpt>
      <trkpt lat="45.8094" lon="4.64535">
        <ele>354</ele>
        <time>2012-06-22T16:27:13Z</time>
      </trkpt>
      <trkpt lat="45.80933" lon="4.64539">
        <ele>354</ele>
        <time>2012-06-22T16:27:44Z</time>
      </trkpt>
      <trkpt lat="45.8094" lon="4.6455">
        <ele>353</ele>
        <time>2012-06-22T16:27:49Z</time>
      </trkpt>
      <trkpt lat="45.80957" lon="4.64577">
        <ele>353</ele>
        <time>2012-06-22T16:27:56Z</time>
      </trkpt>
      <trkpt lat="45.80987" lon="4.64604">
        <ele>349</ele>
        <time>2012-06-22T16:28:04Z</time>
      </trkpt>
      <trkpt lat="45.80999" lon="4.64622">
        <ele>348</ele>
        <time>2012-06-22T16:28:07Z</time>
      </trkpt>
      <trkpt lat="45.81009" lon="4.64635">
        <ele>345</ele>
        <time>2012-06-22T16:28:09Z</time>
      </trkpt>
      <trkpt lat="45.81019" lon="4.64649">
        <ele>344</ele>
        <time>2012-06-22T16:28:11Z</time>
      </trkpt>
      <trkpt lat="45.81033" lon="4.64672">
        <ele>341</ele>
        <time>2012-06-22T16:28:14Z</time>
      </trkpt>
      <trkpt lat="45.8106" lon="4.64715">
        <ele>340</ele>
        <time>2012-06-22T16:28:20Z</time>
      </trkpt>
      <trkpt lat="45.81065" lon="4.64721">
        <ele>340</ele>
        <time>2012-06-22T16:28:21Z</time>
      </trkpt>
      <trkpt lat="45.81135" lon="4.64834">
        <ele>332</ele>
        <time>2012-06-22T16:28:39Z</time>
      </trkpt>
      <trkpt lat="45.81138" lon="4.64841">
        <ele>332</ele>
        <time>2012-06-22T16:28:40Z</time>
      </trkpt>
      <trkpt lat="45.8114" lon="4.64848">
        <ele>332</ele>
        <time>2012-06-22T16:28:41Z</time>
      </trkpt>
      <trkpt lat="45.81147" lon="4.64884">
        <ele>331</ele>
        <time>2012-06-22T16:28:46Z</time>
      </trkpt>
      <trkpt lat="45.81171" lon="4.64978">
        <ele>326</ele>
        <time>2012-06-22T16:28:59Z</time>
      </trkpt>
      <trkpt lat="45.81309" lon="4.65257">
        <ele>322</ele>
        <time>2012-06-22T16:29:41Z</time>
      </trkpt>
      <trkpt lat="45.81314" lon="4.65253">
        <ele>321</ele>
        <time>2012-06-22T16:29:44Z</time>
      </trkpt>
      <trkpt lat="45.81315" lon="4.65252">
        <ele>321</ele>
        <time>2012-06-22T16:29:49Z</time>
      </trkpt>
      <trkpt lat="45.81317" lon="4.65253">
        <ele>321</ele>
        <time>2012-06-22T16:29:54Z</time>
      </trkpt>
      <trkpt lat="45.81327" lon="4.6526">
        <ele>320</ele>
        <time>2012-06-22T16:29:58Z</time>
      </trkpt>
      <trkpt lat="45.81353" lon="4.65284">
        <ele>316</ele>
        <time>2012-06-22T16:30:04Z</time>
      </trkpt>
      <trkpt lat="45.81363" lon="4.65291">
        <ele>315</ele>
        <time>2012-06-22T16:30:06Z</time>
      </trkpt>
      <trkpt lat="45.81371" lon="4.65319">
        <ele>316</ele>
        <time>2012-06-22T16:30:11Z</time>
      </trkpt>
      <trkpt lat="45.81383" lon="4.65384">
        <ele>316</ele>
        <time>2012-06-22T16:30:20Z</time>
      </trkpt>
      <trkpt lat="45.81397" lon="4.65458">
        <ele>315</ele>
        <time>2012-06-22T16:30:28Z</time>
      </trkpt>
      <trkpt lat="45.814" lon="4.6548">
        <ele>314</ele>
        <time>2012-06-22T16:30:30Z</time>
      </trkpt>
      <trkpt lat="45.81386" lon="4.65533">
        <ele>314</ele>
        <time>2012-06-22T16:30:35Z</time>
      </trkpt>
      <trkpt lat="45.81372" lon="4.65548">
        <ele>315</ele>
        <time>2012-06-22T16:30:38Z</time>
      </trkpt>
      <trkpt lat="45.81363" lon="4.65544">
        <ele>315</ele>
        <time>2012-06-22T16:30:40Z</time>
      </trkpt>
      <trkpt lat="45.81357" lon="4.65538">
        <ele>315</ele>
        <time>2012-06-22T16:30:42Z</time>
      </trkpt>
      <trkpt lat="45.81336" lon="4.65521">
        <ele>317</ele>
        <time>2012-06-22T16:30:51Z</time>
      </trkpt>
      <trkpt lat="45.8133" lon="4.65516">
        <ele>321</ele>
        <time>2012-06-22T16:30:54Z</time>
      </trkpt>
      <trkpt lat="45.81314" lon="4.65506">
        <ele>322</ele>
        <time>2012-06-22T16:31:02Z</time>
      </trkpt>
      <trkpt lat="45.81304" lon="4.655">
        <ele>324</ele>
        <time>2012-06-22T16:31:06Z</time>
      </trkpt>
      <trkpt lat="45.81288" lon="4.65486">
        <ele>325</ele>
        <time>2012-06-22T16:31:14Z</time>
      </trkpt>
      <trkpt lat="45.8127" lon="4.65473">
        <ele>325</ele>
        <time>2012-06-22T16:31:25Z</time>
      </trkpt>
      <trkpt lat="45.81257" lon="4.65464">
        <ele>326</ele>
        <time>2012-06-22T16:31:34Z</time>
      </trkpt>
      <trkpt lat="45.81243" lon="4.65453">
        <ele>331</ele>
        <time>2012-06-22T16:31:43Z</time>
      </trkpt>
      <trkpt lat="45.81228" lon="4.6544">
        <ele>332</ele>
        <time>2012-06-22T16:31:53Z</time>
      </trkpt>
      <trkpt lat="45.81227" lon="4.65439">
        <ele>332</ele>
        <time>2012-06-22T16:31:54Z</time>
      </trkpt>
      <trkpt lat="45.81212" lon="4.65425">
        <ele>333</ele>
        <time>2012-06-22T16:32:04Z</time>
      </trkpt>
      <trkpt lat="45.8121" lon="4.65421">
        <ele>333</ele>
        <time>2012-06-22T16:32:14Z</time>
      </trkpt>
      <trkpt lat="45.81211" lon="4.65423">
        <ele>333</ele>
        <time>2012-06-22T16:33:01Z</time>
      </trkpt>
      <trkpt lat="45.81219" lon="4.6543">
        <ele>332</ele>
        <time>2012-06-22T16:33:05Z</time>
      </trkpt>
      <trkpt lat="45.81243" lon="4.65452">
        <ele>331</ele>
        <time>2012-06-22T16:33:10Z</time>
      </trkpt>
      <trkpt lat="45.81264" lon="4.65468">
        <ele>326</ele>
        <time>2012-06-22T16:33:13Z</time>
      </trkpt>
      <trkpt lat="45.81299" lon="4.65486">
        <ele>324</ele>
        <time>2012-06-22T16:33:17Z</time>
      </trkpt>
      <trkpt lat="45.81327" lon="4.65505">
        <ele>321</ele>
        <time>2012-06-22T16:33:20Z</time>
      </trkpt>
      <trkpt lat="45.81362" lon="4.6553">
        <ele>315</ele>
        <time>2012-06-22T16:33:24Z</time>
      </trkpt>
      <trkpt lat="45.81369" lon="4.65534">
        <ele>315</ele>
        <time>2012-06-22T16:33:25Z</time>
      </trkpt>
      <trkpt lat="45.81387" lon="4.65536">
        <ele>314</ele>
        <time>2012-06-22T16:33:29Z</time>
      </trkpt>
      <trkpt lat="45.81393" lon="4.65534">
        <ele>314</ele>
        <time>2012-06-22T16:33:31Z</time>
      </trkpt>
      <trkpt lat="45.81406" lon="4.65496">
        <ele>312</ele>
        <time>2012-06-22T16:33:37Z</time>
      </trkpt>
      <trkpt lat="45.81405" lon="4.65467">
        <ele>314</ele>
        <time>2012-06-22T16:33:40Z</time>
      </trkpt>
      <trkpt lat="45.81383" lon="4.65363">
        <ele>316</ele>
        <time>2012-06-22T16:33:52Z</time>
      </trkpt>
      <trkpt lat="45.81366" lon="4.65284">
        <ele>315</ele>
        <time>2012-06-22T16:34:01Z</time>
      </trkpt>
      <trkpt lat="45.81354" lon="4.65229">
        <ele>315</ele>
        <time>2012-06-22T16:34:06Z</time>
      </trkpt>
      <trkpt lat="45.81366" lon="4.65186">
        <ele>315</ele>
        <time>2012-06-22T16:34:10Z</time>
      </trkpt>
      <trkpt lat="45.81389" lon="4.65184">
        <ele>315</ele>
        <time>2012-06-22T16:34:13Z</time>
      </trkpt>
      <trkpt lat="45.8142" lon="4.65193">
        <ele>315</ele>
        <time>2012-06-22T16:34:18Z</time>
      </trkpt>
      <trkpt lat="45.8143" lon="4.65192">
        <ele>315</ele>
        <time>2012-06-22T16:34:20Z</time>
      </trkpt>
      <trkpt lat="45.81448" lon="4.65164">
        <ele>319</ele>
        <time>2012-06-22T16:34:26Z</time>
      </trkpt>
      <trkpt lat="45.81448" lon="4.65158">
        <ele>319</ele>
        <time>2012-06-22T16:34:27Z</time>
      </trkpt>
      <trkpt lat="45.8145" lon="4.65101">
        <ele>320</ele>
        <time>2012-06-22T16:34:37Z</time>
      </trkpt>
      <trkpt lat="45.81451" lon="4.65009">
        <ele>326</ele>
        <time>2012-06-22T16:34:57Z</time>
      </trkpt>
      <trkpt lat="45.81454" lon="4.64911">
        <ele>333</ele>
        <time>2012-06-22T16:35:21Z</time>
      </trkpt>
      <trkpt lat="45.81458" lon="4.64873">
        <ele>333</ele>
        <time>2012-06-22T16:35:31Z</time>
      </trkpt>
      <trkpt lat="45.81461" lon="4.64829">
        <ele>336</ele>
        <time>2012-06-22T16:35:42Z</time>
      </trkpt>
      <trkpt lat="45.81464" lon="4.6478">
        <ele>337</ele>
        <time>2012-06-22T16:35:54Z</time>
      </trkpt>
      <trkpt lat="45.81466" lon="4.64732">
        <ele>341</ele>
        <time>2012-06-22T16:36:06Z</time>
      </trkpt>
      <trkpt lat="45.81461" lon="4.64691">
        <ele>343</ele>
        <time>2012-06-22T16:36:17Z</time>
      </trkpt>
      <trkpt lat="45.81451" lon="4.64645">
        <ele>348</ele>
        <time>2012-06-22T16:36:29Z</time>
      </trkpt>
      <trkpt lat="45.81445" lon="4.646">
        <ele>350</ele>
        <time>2012-06-22T16:36:40Z</time>
      </trkpt>
      <trkpt lat="45.81445" lon="4.64596">
        <ele>350</ele>
        <time>2012-06-22T16:36:41Z</time>
      </trkpt>
      <trkpt lat="45.81457" lon="4.6457">
        <ele>354</ele>
        <time>2012-06-22T16:36:49Z</time>
      </trkpt>
      <trkpt lat="45.81475" lon="4.64534">
        <ele>355</ele>
        <time>2012-06-22T16:37:00Z</time>
      </trkpt>
      <trkpt lat="45.81494" lon="4.64488">
        <ele>357</ele>
        <time>2012-06-22T16:37:12Z</time>
      </trkpt>
      <trkpt lat="45.81508" lon="4.64448">
        <ele>361</ele>
        <time>2012-06-22T16:37:23Z</time>
      </trkpt>
      <trkpt lat="45.81522" lon="4.64405">
        <ele>365</ele>
        <time>2012-06-22T16:37:35Z</time>
      </trkpt>
      <trkpt lat="45.8153" lon="4.64387">
        <ele>367</ele>
        <time>2012-06-22T16:37:42Z</time>
      </trkpt>
      <trkpt lat="45.81533" lon="4.64349">
        <ele>368</ele>
        <time>2012-06-22T16:37:58Z</time>
      </trkpt>
      <trkpt lat="45.81532" lon="4.64362">
        <ele>368</ele>
        <time>2012-06-22T16:38:01Z</time>
      </trkpt>
      <trkpt lat="45.81522" lon="4.64363">
        <ele>367</ele>
        <time>2012-06-22T16:38:05Z</time>
      </trkpt>
      <trkpt lat="45.81523" lon="4.64358">
        <ele>367</ele>
        <time>2012-06-22T16:38:06Z</time>
      </trkpt>
      <trkpt lat="45.81521" lon="4.64305">
        <ele>372</ele>
        <time>2012-06-22T16:38:17Z</time>
      </trkpt>
      <trkpt lat="45.81518" lon="4.64261">
        <ele>373</ele>
        <time>2012-06-22T16:38:26Z</time>
      </trkpt>
      <trkpt lat="45.8152" lon="4.64213">
        <ele>378</ele>
        <time>2012-06-22T16:38:37Z</time>
      </trkpt>
      <trkpt lat="45.81525" lon="4.64199">
        <ele>378</ele>
        <time>2012-06-22T16:38:41Z</time>
      </trkpt>
      <trkpt lat="45.81531" lon="4.64185">
        <ele>379</ele>
        <time>2012-06-22T16:38:45Z</time>
      </trkpt>
      <trkpt lat="45.81548" lon="4.64117">
        <ele>384</ele>
        <time>2012-06-22T16:39:03Z</time>
      </trkpt>
      <trkpt lat="45.81547" lon="4.64065">
        <ele>388</ele>
        <time>2012-06-22T16:39:16Z</time>
      </trkpt>
      <trkpt lat="45.81548" lon="4.64048">
        <ele>388</ele>
        <time>2012-06-22T16:39:21Z</time>
      </trkpt>
      <trkpt lat="45.81553" lon="4.64055">
        <ele>389</ele>
        <time>2012-06-22T16:39:26Z</time>
      </trkpt>
      <trkpt lat="45.81565" lon="4.64106">
        <ele>386</ele>
        <time>2012-06-22T16:39:38Z</time>
      </trkpt>
      <trkpt lat="45.8158" lon="4.64184">
        <ele>385</ele>
        <time>2012-06-22T16:39:53Z</time>
      </trkpt>
      <trkpt lat="45.81588" lon="4.64224">
        <ele>392</ele>
        <time>2012-06-22T16:40:00Z</time>
      </trkpt>
      <trkpt lat="45.81606" lon="4.64257">
        <ele>388</ele>
        <time>2012-06-22T16:40:07Z</time>
      </trkpt>
      <trkpt lat="45.81638" lon="4.64286">
        <ele>388</ele>
        <time>2012-06-22T16:40:15Z</time>
      </trkpt>
      <trkpt lat="45.81683" lon="4.64302">
        <ele>391</ele>
        <time>2012-06-22T16:40:24Z</time>
      </trkpt>
      <trkpt lat="45.81732" lon="4.643">
        <ele>392</ele>
        <time>2012-06-22T16:40:33Z</time>
      </trkpt>
      <trkpt lat="45.81791" lon="4.64297">
        <ele>394</ele>
        <time>2012-06-22T16:40:44Z</time>
      </trkpt>
      <trkpt lat="45.81851" lon="4.64289">
        <ele>393</ele>
        <time>2012-06-22T16:40:55Z</time>
      </trkpt>
      <trkpt lat="45.819" lon="4.64263">
        <ele>393</ele>
        <time>2012-06-22T16:41:04Z</time>
      </trkpt>
      <trkpt lat="45.81949" lon="4.64217">
        <ele>390</ele>
        <time>2012-06-22T16:41:15Z</time>
      </trkpt>
      <trkpt lat="45.81954" lon="4.64197">
        <ele>390</ele>
        <time>2012-06-22T16:41:18Z</time>
      </trkpt>
      <trkpt lat="45.81987" lon="4.64133">
        <ele>395</ele>
        <time>2012-06-22T16:41:29Z</time>
      </trkpt>
      <trkpt lat="45.8203" lon="4.64059">
        <ele>395</ele>
        <time>2012-06-22T16:41:41Z</time>
      </trkpt>
      <trkpt lat="45.82067" lon="4.6397">
        <ele>397</ele>
        <time>2012-06-22T16:41:53Z</time>
      </trkpt>
      <trkpt lat="45.82077" lon="4.63904">
        <ele>396</ele>
        <time>2012-06-22T16:42:00Z</time>
      </trkpt>
      <trkpt lat="45.82082" lon="4.63853">
        <ele>397</ele>
        <time>2012-06-22T16:42:05Z</time>
      </trkpt>
      <trkpt lat="45.82073" lon="4.63813">
        <ele>395</ele>
        <time>2012-06-22T16:42:09Z</time>
      </trkpt>
      <trkpt lat="45.82059" lon="4.63757">
        <ele>393</ele>
        <time>2012-06-22T16:42:14Z</time>
      </trkpt>
      <trkpt lat="45.82048" lon="4.63695">
        <ele>389</ele>
        <time>2012-06-22T16:42:19Z</time>
      </trkpt>
      <trkpt lat="45.82044" lon="4.63653">
        <ele>384</ele>
        <time>2012-06-22T16:42:22Z</time>
      </trkpt>
      <trkpt lat="45.82035" lon="4.63579">
        <ele>380</ele>
        <time>2012-06-22T16:42:27Z</time>
      </trkpt>
      <trkpt lat="45.82019" lon="4.63504">
        <ele>378</ele>
        <time>2012-06-22T16:42:32Z</time>
      </trkpt>
      <trkpt lat="45.82015" lon="4.63472">
        <ele>375</ele>
        <time>2012-06-22T16:42:34Z</time>
      </trkpt>
      <trkpt lat="45.8202" lon="4.63393">
        <ele>375</ele>
        <time>2012-06-22T16:42:39Z</time>
      </trkpt>
      <trkpt lat="45.82024" lon="4.63365">
        <ele>375</ele>
        <time>2012-06-22T16:42:41Z</time>
      </trkpt>
      <trkpt lat="45.8205" lon="4.63314">
        <ele>380</ele>
        <time>2012-06-22T16:42:46Z</time>
      </trkpt>
      <trkpt lat="45.8212" lon="4.63276">
        <ele>376</ele>
        <time>2012-06-22T16:42:56Z</time>
      </trkpt>
      <trkpt lat="45.82165" lon="4.63248">
        <ele>377</ele>
        <time>2012-06-22T16:43:03Z</time>
      </trkpt>
      <trkpt lat="45.82182" lon="4.63228">
        <ele>374</ele>
        <time>2012-06-22T16:43:06Z</time>
      </trkpt>
      <trkpt lat="45.82208" lon="4.63166">
        <ele>375</ele>
        <time>2012-06-22T16:43:13Z</time>
      </trkpt>
      <trkpt lat="45.82223" lon="4.63098">
        <ele>374</ele>
        <time>2012-06-22T16:43:21Z</time>
      </trkpt>
      <trkpt lat="45.82229" lon="4.63063">
        <ele>377</ele>
        <time>2012-06-22T16:43:26Z</time>
      </trkpt>
      <trkpt lat="45.82251" lon="4.62836">
        <ele>380</ele>
        <time>2012-06-22T16:43:58Z</time>
      </trkpt>
      <trkpt lat="45.82263" lon="4.6276">
        <ele>375</ele>
        <time>2012-06-22T16:44:06Z</time>
      </trkpt>
      <trkpt lat="45.8227" lon="4.62688">
        <ele>370</ele>
        <time>2012-06-22T16:44:12Z</time>
      </trkpt>
      <trkpt lat="45.82271" lon="4.62639">
        <ele>366</ele>
        <time>2012-06-22T16:44:16Z</time>
      </trkpt>
      <trkpt lat="45.82269" lon="4.62616">
        <ele>365</ele>
        <time>2012-06-22T16:44:18Z</time>
      </trkpt>
      <trkpt lat="45.82246" lon="4.62582">
        <ele>367</ele>
        <time>2012-06-22T16:44:22Z</time>
      </trkpt>
      <trkpt lat="45.82229" lon="4.62572">
        <ele>368</ele>
        <time>2012-06-22T16:44:24Z</time>
      </trkpt>
      <trkpt lat="45.82216" lon="4.62545">
        <ele>368</ele>
        <time>2012-06-22T16:44:27Z</time>
      </trkpt>
      <trkpt lat="45.82219" lon="4.62534">
        <ele>368</ele>
        <time>2012-06-22T16:44:28Z</time>
      </trkpt>
      <trkpt lat="45.82225" lon="4.62511">
        <ele>366</ele>
        <time>2012-06-22T16:44:30Z</time>
      </trkpt>
      <trkpt lat="45.82225" lon="4.62487">
        <ele>364</ele>
        <time>2012-06-22T16:44:32Z</time>
      </trkpt>
      <trkpt lat="45.82223" lon="4.62474">
        <ele>364</ele>
        <time>2012-06-22T16:44:33Z</time>
      </trkpt>
      <trkpt lat="45.82213" lon="4.62412">
        <ele>362</ele>
        <time>2012-06-22T16:44:38Z</time>
      </trkpt>
      <trkpt lat="45.82153" lon="4.62316">
        <ele>364</ele>
        <time>2012-06-22T16:44:50Z</time>
      </trkpt>
      <trkpt lat="45.8212" lon="4.62316">
        <ele>365</ele>
        <time>2012-06-22T16:45:10Z</time>
      </trkpt>
    </trkseg>
  </trk>
</gpx>